<?xml version="1.0" encoding="UTF-8" standalone="no" ?>
<gpx xmlns="http://www.topografix.com/GPX/1/1" xmlns:xsi="http://www.w3.org/2001/XMLSchema-instance" xsi:schemaLocation="http://www.topografix.com/GPX/1/1 http://www.topografix.com/GPX/1/1/gpx.xsd" version="1.1" creator="VisuGPX - https://www.visugpx.com">
  <metadata>
    <name>samedi 18 janvier 2014</name>
    <desc><![CDATA[club vtt des rochers]]></desc>
  </metadata>
  <trk>
    <name><![CDATA[18jan2014]]></name>
    <trkseg>
      <trkpt lat="44.47218" lon="0.93416">
        <ele>71</ele>
        <time>2014-01-18T13:12:47Z</time>
      </trkpt>
      <trkpt lat="44.47212" lon="0.93412">
        <ele>67</ele>
        <time>2014-01-18T13:13:12Z</time>
      </trkpt>
      <trkpt lat="44.47209" lon="0.93412">
        <ele>66</ele>
        <time>2014-01-18T13:13:33Z</time>
      </trkpt>
      <trkpt lat="44.47208" lon="0.9341">
        <ele>67</ele>
        <time>2014-01-18T13:13:54Z</time>
      </trkpt>
      <trkpt lat="44.47207" lon="0.9341">
        <ele>68</ele>
        <time>2014-01-18T13:14:28Z</time>
      </trkpt>
      <trkpt lat="44.47208" lon="0.9341">
        <ele>68</ele>
        <time>2014-01-18T13:14:50Z</time>
      </trkpt>
      <trkpt lat="44.47207" lon="0.9341">
        <ele>68</ele>
        <time>2014-01-18T13:15:17Z</time>
      </trkpt>
      <trkpt lat="44.47208" lon="0.93411">
        <ele>68</ele>
        <time>2014-01-18T13:15:52Z</time>
      </trkpt>
      <trkpt lat="44.47209" lon="0.93411">
        <ele>68</ele>
        <time>2014-01-18T13:16:13Z</time>
      </trkpt>
      <trkpt lat="44.47209" lon="0.93412">
        <ele>69</ele>
        <time>2014-01-18T13:16:40Z</time>
      </trkpt>
      <trkpt lat="44.4721" lon="0.93412">
        <ele>70</ele>
        <time>2014-01-18T13:17:10Z</time>
      </trkpt>
      <trkpt lat="44.4721" lon="0.93414">
        <ele>71</ele>
        <time>2014-01-18T13:17:44Z</time>
      </trkpt>
      <trkpt lat="44.4721" lon="0.93414">
        <ele>71</ele>
        <time>2014-01-18T13:18:08Z</time>
      </trkpt>
      <trkpt lat="44.47209" lon="0.93413">
        <ele>71</ele>
        <time>2014-01-18T13:18:30Z</time>
      </trkpt>
      <trkpt lat="44.47209" lon="0.93414">
        <ele>71</ele>
        <time>2014-01-18T13:18:59Z</time>
      </trkpt>
      <trkpt lat="44.47209" lon="0.93414">
        <ele>71</ele>
        <time>2014-01-18T13:19:17Z</time>
      </trkpt>
      <trkpt lat="44.47207" lon="0.93415">
        <ele>70</ele>
        <time>2014-01-18T13:19:22Z</time>
      </trkpt>
      <trkpt lat="44.47197" lon="0.93425">
        <ele>70</ele>
        <time>2014-01-18T13:19:33Z</time>
      </trkpt>
      <trkpt lat="44.472" lon="0.93426">
        <ele>69</ele>
        <time>2014-01-18T13:19:47Z</time>
      </trkpt>
      <trkpt lat="44.47198" lon="0.93426">
        <ele>69</ele>
        <time>2014-01-18T13:20:05Z</time>
      </trkpt>
      <trkpt lat="44.47198" lon="0.93426">
        <ele>69</ele>
        <time>2014-01-18T13:20:20Z</time>
      </trkpt>
      <trkpt lat="44.47197" lon="0.93426">
        <ele>69</ele>
        <time>2014-01-18T13:20:40Z</time>
      </trkpt>
      <trkpt lat="44.47197" lon="0.93426">
        <ele>69</ele>
        <time>2014-01-18T13:21:00Z</time>
      </trkpt>
      <trkpt lat="44.47198" lon="0.93426">
        <ele>69</ele>
        <time>2014-01-18T13:21:24Z</time>
      </trkpt>
      <trkpt lat="44.47198" lon="0.93426">
        <ele>68</ele>
        <time>2014-01-18T13:21:53Z</time>
      </trkpt>
      <trkpt lat="44.47196" lon="0.93426">
        <ele>68</ele>
        <time>2014-01-18T13:22:13Z</time>
      </trkpt>
      <trkpt lat="44.47197" lon="0.93426">
        <ele>68</ele>
        <time>2014-01-18T13:22:35Z</time>
      </trkpt>
      <trkpt lat="44.47195" lon="0.93425">
        <ele>68</ele>
        <time>2014-01-18T13:22:52Z</time>
      </trkpt>
      <trkpt lat="44.4719" lon="0.93451">
        <ele>68</ele>
        <time>2014-01-18T13:23:04Z</time>
      </trkpt>
      <trkpt lat="44.47189" lon="0.93454">
        <ele>68</ele>
        <time>2014-01-18T13:23:05Z</time>
      </trkpt>
      <trkpt lat="44.47187" lon="0.93459">
        <ele>67</ele>
        <time>2014-01-18T13:23:07Z</time>
      </trkpt>
      <trkpt lat="44.47185" lon="0.93461">
        <ele>68</ele>
        <time>2014-01-18T13:23:08Z</time>
      </trkpt>
      <trkpt lat="44.47182" lon="0.93463">
        <ele>68</ele>
        <time>2014-01-18T13:23:09Z</time>
      </trkpt>
      <trkpt lat="44.47179" lon="0.93464">
        <ele>67</ele>
        <time>2014-01-18T13:23:10Z</time>
      </trkpt>
      <trkpt lat="44.47176" lon="0.93465">
        <ele>68</ele>
        <time>2014-01-18T13:23:11Z</time>
      </trkpt>
      <trkpt lat="44.47129" lon="0.93484">
        <ele>67</ele>
        <time>2014-01-18T13:23:25Z</time>
      </trkpt>
      <trkpt lat="44.47108" lon="0.93491">
        <ele>66</ele>
        <time>2014-01-18T13:23:37Z</time>
      </trkpt>
      <trkpt lat="44.47105" lon="0.9349">
        <ele>66</ele>
        <time>2014-01-18T13:23:53Z</time>
      </trkpt>
      <trkpt lat="44.47103" lon="0.93488">
        <ele>66</ele>
        <time>2014-01-18T13:23:54Z</time>
      </trkpt>
      <trkpt lat="44.47101" lon="0.93484">
        <ele>66</ele>
        <time>2014-01-18T13:23:55Z</time>
      </trkpt>
      <trkpt lat="44.47099" lon="0.9348">
        <ele>66</ele>
        <time>2014-01-18T13:23:56Z</time>
      </trkpt>
      <trkpt lat="44.47096" lon="0.93478">
        <ele>66</ele>
        <time>2014-01-18T13:23:57Z</time>
      </trkpt>
      <trkpt lat="44.47091" lon="0.93477">
        <ele>66</ele>
        <time>2014-01-18T13:23:58Z</time>
      </trkpt>
      <trkpt lat="44.47087" lon="0.93478">
        <ele>67</ele>
        <time>2014-01-18T13:23:59Z</time>
      </trkpt>
      <trkpt lat="44.47083" lon="0.93481">
        <ele>67</ele>
        <time>2014-01-18T13:24:00Z</time>
      </trkpt>
      <trkpt lat="44.47079" lon="0.93484">
        <ele>67</ele>
        <time>2014-01-18T13:24:01Z</time>
      </trkpt>
      <trkpt lat="44.4707" lon="0.93491">
        <ele>67</ele>
        <time>2014-01-18T13:24:03Z</time>
      </trkpt>
      <trkpt lat="44.47058" lon="0.93503">
        <ele>67</ele>
        <time>2014-01-18T13:24:06Z</time>
      </trkpt>
      <trkpt lat="44.47054" lon="0.93506">
        <ele>67</ele>
        <time>2014-01-18T13:24:07Z</time>
      </trkpt>
      <trkpt lat="44.47037" lon="0.93523">
        <ele>67</ele>
        <time>2014-01-18T13:24:11Z</time>
      </trkpt>
      <trkpt lat="44.47033" lon="0.93527">
        <ele>67</ele>
        <time>2014-01-18T13:24:12Z</time>
      </trkpt>
      <trkpt lat="44.47018" lon="0.93543">
        <ele>66</ele>
        <time>2014-01-18T13:24:16Z</time>
      </trkpt>
      <trkpt lat="44.46971" lon="0.93584">
        <ele>67</ele>
        <time>2014-01-18T13:24:28Z</time>
      </trkpt>
      <trkpt lat="44.46954" lon="0.93592">
        <ele>67</ele>
        <time>2014-01-18T13:24:32Z</time>
      </trkpt>
      <trkpt lat="44.46949" lon="0.93592">
        <ele>67</ele>
        <time>2014-01-18T13:24:33Z</time>
      </trkpt>
      <trkpt lat="44.46941" lon="0.9359">
        <ele>67</ele>
        <time>2014-01-18T13:24:35Z</time>
      </trkpt>
      <trkpt lat="44.46936" lon="0.93589">
        <ele>67</ele>
        <time>2014-01-18T13:24:36Z</time>
      </trkpt>
      <trkpt lat="44.46932" lon="0.93587">
        <ele>67</ele>
        <time>2014-01-18T13:24:37Z</time>
      </trkpt>
      <trkpt lat="44.46922" lon="0.93583">
        <ele>67</ele>
        <time>2014-01-18T13:24:39Z</time>
      </trkpt>
      <trkpt lat="44.46908" lon="0.93576">
        <ele>67</ele>
        <time>2014-01-18T13:24:42Z</time>
      </trkpt>
      <trkpt lat="44.46845" lon="0.9355">
        <ele>68</ele>
        <time>2014-01-18T13:24:55Z</time>
      </trkpt>
      <trkpt lat="44.46831" lon="0.93544">
        <ele>68</ele>
        <time>2014-01-18T13:24:58Z</time>
      </trkpt>
      <trkpt lat="44.46822" lon="0.93541">
        <ele>67</ele>
        <time>2014-01-18T13:25:00Z</time>
      </trkpt>
      <trkpt lat="44.46813" lon="0.93538">
        <ele>67</ele>
        <time>2014-01-18T13:25:02Z</time>
      </trkpt>
      <trkpt lat="44.46809" lon="0.93538">
        <ele>67</ele>
        <time>2014-01-18T13:25:03Z</time>
      </trkpt>
      <trkpt lat="44.46806" lon="0.9354">
        <ele>67</ele>
        <time>2014-01-18T13:25:04Z</time>
      </trkpt>
      <trkpt lat="44.46802" lon="0.93548">
        <ele>68</ele>
        <time>2014-01-18T13:25:06Z</time>
      </trkpt>
      <trkpt lat="44.46795" lon="0.9359">
        <ele>70</ele>
        <time>2014-01-18T13:25:14Z</time>
      </trkpt>
      <trkpt lat="44.46796" lon="0.93592">
        <ele>71</ele>
        <time>2014-01-18T13:25:15Z</time>
      </trkpt>
      <trkpt lat="44.46799" lon="0.93594">
        <ele>71</ele>
        <time>2014-01-18T13:25:16Z</time>
      </trkpt>
      <trkpt lat="44.46831" lon="0.93608">
        <ele>73</ele>
        <time>2014-01-18T13:25:24Z</time>
      </trkpt>
      <trkpt lat="44.46836" lon="0.93609">
        <ele>73</ele>
        <time>2014-01-18T13:25:25Z</time>
      </trkpt>
      <trkpt lat="44.46859" lon="0.93624">
        <ele>77</ele>
        <time>2014-01-18T13:25:36Z</time>
      </trkpt>
      <trkpt lat="44.4686" lon="0.93624">
        <ele>77</ele>
        <time>2014-01-18T13:25:56Z</time>
      </trkpt>
      <trkpt lat="44.46859" lon="0.93626">
        <ele>78</ele>
        <time>2014-01-18T13:26:05Z</time>
      </trkpt>
      <trkpt lat="44.46859" lon="0.93629">
        <ele>77</ele>
        <time>2014-01-18T13:26:06Z</time>
      </trkpt>
      <trkpt lat="44.46859" lon="0.93632">
        <ele>77</ele>
        <time>2014-01-18T13:26:07Z</time>
      </trkpt>
      <trkpt lat="44.46859" lon="0.93635">
        <ele>77</ele>
        <time>2014-01-18T13:26:08Z</time>
      </trkpt>
      <trkpt lat="44.46859" lon="0.93639">
        <ele>77</ele>
        <time>2014-01-18T13:26:09Z</time>
      </trkpt>
      <trkpt lat="44.46858" lon="0.93644">
        <ele>77</ele>
        <time>2014-01-18T13:26:10Z</time>
      </trkpt>
      <trkpt lat="44.46857" lon="0.93648">
        <ele>77</ele>
        <time>2014-01-18T13:26:11Z</time>
      </trkpt>
      <trkpt lat="44.46855" lon="0.93653">
        <ele>77</ele>
        <time>2014-01-18T13:26:12Z</time>
      </trkpt>
      <trkpt lat="44.46825" lon="0.93745">
        <ele>78</ele>
        <time>2014-01-18T13:26:29Z</time>
      </trkpt>
      <trkpt lat="44.46789" lon="0.93849">
        <ele>79</ele>
        <time>2014-01-18T13:26:47Z</time>
      </trkpt>
      <trkpt lat="44.4675" lon="0.93961">
        <ele>78</ele>
        <time>2014-01-18T13:27:05Z</time>
      </trkpt>
      <trkpt lat="44.46731" lon="0.94019">
        <ele>78</ele>
        <time>2014-01-18T13:27:15Z</time>
      </trkpt>
      <trkpt lat="44.46729" lon="0.94024">
        <ele>78</ele>
        <time>2014-01-18T13:27:16Z</time>
      </trkpt>
      <trkpt lat="44.46725" lon="0.94027">
        <ele>78</ele>
        <time>2014-01-18T13:27:17Z</time>
      </trkpt>
      <trkpt lat="44.46721" lon="0.94029">
        <ele>78</ele>
        <time>2014-01-18T13:27:18Z</time>
      </trkpt>
      <trkpt lat="44.46717" lon="0.94028">
        <ele>78</ele>
        <time>2014-01-18T13:27:19Z</time>
      </trkpt>
      <trkpt lat="44.46712" lon="0.94027">
        <ele>79</ele>
        <time>2014-01-18T13:27:20Z</time>
      </trkpt>
      <trkpt lat="44.46708" lon="0.94025">
        <ele>79</ele>
        <time>2014-01-18T13:27:21Z</time>
      </trkpt>
      <trkpt lat="44.46703" lon="0.94023">
        <ele>79</ele>
        <time>2014-01-18T13:27:22Z</time>
      </trkpt>
      <trkpt lat="44.46633" lon="0.93999">
        <ele>79</ele>
        <time>2014-01-18T13:27:37Z</time>
      </trkpt>
      <trkpt lat="44.46628" lon="0.93998">
        <ele>79</ele>
        <time>2014-01-18T13:27:38Z</time>
      </trkpt>
      <trkpt lat="44.46623" lon="0.93999">
        <ele>79</ele>
        <time>2014-01-18T13:27:39Z</time>
      </trkpt>
      <trkpt lat="44.46618" lon="0.94">
        <ele>79</ele>
        <time>2014-01-18T13:27:40Z</time>
      </trkpt>
      <trkpt lat="44.46614" lon="0.94002">
        <ele>79</ele>
        <time>2014-01-18T13:27:41Z</time>
      </trkpt>
      <trkpt lat="44.46552" lon="0.9403">
        <ele>79</ele>
        <time>2014-01-18T13:27:54Z</time>
      </trkpt>
      <trkpt lat="44.46477" lon="0.94086">
        <ele>78</ele>
        <time>2014-01-18T13:28:11Z</time>
      </trkpt>
      <trkpt lat="44.46407" lon="0.94162">
        <ele>78</ele>
        <time>2014-01-18T13:28:28Z</time>
      </trkpt>
      <trkpt lat="44.46337" lon="0.94238">
        <ele>78</ele>
        <time>2014-01-18T13:28:45Z</time>
      </trkpt>
      <trkpt lat="44.46249" lon="0.94333">
        <ele>79</ele>
        <time>2014-01-18T13:29:06Z</time>
      </trkpt>
      <trkpt lat="44.46229" lon="0.94355">
        <ele>80</ele>
        <time>2014-01-18T13:29:11Z</time>
      </trkpt>
      <trkpt lat="44.46227" lon="0.94361">
        <ele>80</ele>
        <time>2014-01-18T13:29:12Z</time>
      </trkpt>
      <trkpt lat="44.46225" lon="0.94367">
        <ele>80</ele>
        <time>2014-01-18T13:29:13Z</time>
      </trkpt>
      <trkpt lat="44.46224" lon="0.94372">
        <ele>80</ele>
        <time>2014-01-18T13:29:14Z</time>
      </trkpt>
      <trkpt lat="44.46223" lon="0.94378">
        <ele>80</ele>
        <time>2014-01-18T13:29:15Z</time>
      </trkpt>
      <trkpt lat="44.46221" lon="0.94383">
        <ele>80</ele>
        <time>2014-01-18T13:29:16Z</time>
      </trkpt>
      <trkpt lat="44.46201" lon="0.94437">
        <ele>81</ele>
        <time>2014-01-18T13:29:27Z</time>
      </trkpt>
      <trkpt lat="44.46203" lon="0.94463">
        <ele>82</ele>
        <time>2014-01-18T13:29:32Z</time>
      </trkpt>
      <trkpt lat="44.46232" lon="0.94503">
        <ele>83</ele>
        <time>2014-01-18T13:29:42Z</time>
      </trkpt>
      <trkpt lat="44.46289" lon="0.94579">
        <ele>85</ele>
        <time>2014-01-18T13:30:01Z</time>
      </trkpt>
      <trkpt lat="44.46319" lon="0.94619">
        <ele>85</ele>
        <time>2014-01-18T13:30:13Z</time>
      </trkpt>
      <trkpt lat="44.46357" lon="0.94673">
        <ele>86</ele>
        <time>2014-01-18T13:30:28Z</time>
      </trkpt>
      <trkpt lat="44.46376" lon="0.94701">
        <ele>88</ele>
        <time>2014-01-18T13:30:37Z</time>
      </trkpt>
      <trkpt lat="44.46377" lon="0.94708">
        <ele>88</ele>
        <time>2014-01-18T13:30:49Z</time>
      </trkpt>
      <trkpt lat="44.46377" lon="0.94709">
        <ele>89</ele>
        <time>2014-01-18T13:31:15Z</time>
      </trkpt>
      <trkpt lat="44.46378" lon="0.9471">
        <ele>89</ele>
        <time>2014-01-18T13:31:17Z</time>
      </trkpt>
      <trkpt lat="44.46376" lon="0.94715">
        <ele>88</ele>
        <time>2014-01-18T13:31:19Z</time>
      </trkpt>
      <trkpt lat="44.46352" lon="0.94754">
        <ele>89</ele>
        <time>2014-01-18T13:31:30Z</time>
      </trkpt>
      <trkpt lat="44.46323" lon="0.94825">
        <ele>90</ele>
        <time>2014-01-18T13:31:44Z</time>
      </trkpt>
      <trkpt lat="44.46291" lon="0.94913">
        <ele>86</ele>
        <time>2014-01-18T13:31:56Z</time>
      </trkpt>
      <trkpt lat="44.46256" lon="0.95017">
        <ele>84</ele>
        <time>2014-01-18T13:32:09Z</time>
      </trkpt>
      <trkpt lat="44.46253" lon="0.95023">
        <ele>84</ele>
        <time>2014-01-18T13:32:10Z</time>
      </trkpt>
      <trkpt lat="44.46249" lon="0.95029">
        <ele>84</ele>
        <time>2014-01-18T13:32:11Z</time>
      </trkpt>
      <trkpt lat="44.46245" lon="0.95035">
        <ele>84</ele>
        <time>2014-01-18T13:32:12Z</time>
      </trkpt>
      <trkpt lat="44.4624" lon="0.95041">
        <ele>84</ele>
        <time>2014-01-18T13:32:13Z</time>
      </trkpt>
      <trkpt lat="44.46236" lon="0.95046">
        <ele>84</ele>
        <time>2014-01-18T13:32:14Z</time>
      </trkpt>
      <trkpt lat="44.46231" lon="0.9505">
        <ele>84</ele>
        <time>2014-01-18T13:32:15Z</time>
      </trkpt>
      <trkpt lat="44.46153" lon="0.951">
        <ele>85</ele>
        <time>2014-01-18T13:32:31Z</time>
      </trkpt>
      <trkpt lat="44.46106" lon="0.95128">
        <ele>86</ele>
        <time>2014-01-18T13:32:41Z</time>
      </trkpt>
      <trkpt lat="44.4604" lon="0.95197">
        <ele>87</ele>
        <time>2014-01-18T13:32:57Z</time>
      </trkpt>
      <trkpt lat="44.46004" lon="0.9524">
        <ele>86</ele>
        <time>2014-01-18T13:33:06Z</time>
      </trkpt>
      <trkpt lat="44.45999" lon="0.95244">
        <ele>87</ele>
        <time>2014-01-18T13:33:07Z</time>
      </trkpt>
      <trkpt lat="44.4598" lon="0.95268">
        <ele>87</ele>
        <time>2014-01-18T13:33:13Z</time>
      </trkpt>
      <trkpt lat="44.45935" lon="0.95299">
        <ele>88</ele>
        <time>2014-01-18T13:33:25Z</time>
      </trkpt>
      <trkpt lat="44.45917" lon="0.95299">
        <ele>88</ele>
        <time>2014-01-18T13:33:29Z</time>
      </trkpt>
      <trkpt lat="44.45895" lon="0.95292">
        <ele>90</ele>
        <time>2014-01-18T13:33:34Z</time>
      </trkpt>
      <trkpt lat="44.45843" lon="0.95321">
        <ele>91</ele>
        <time>2014-01-18T13:33:47Z</time>
      </trkpt>
      <trkpt lat="44.45827" lon="0.95332">
        <ele>91</ele>
        <time>2014-01-18T13:33:51Z</time>
      </trkpt>
      <trkpt lat="44.45757" lon="0.9538">
        <ele>94</ele>
        <time>2014-01-18T13:34:09Z</time>
      </trkpt>
      <trkpt lat="44.45687" lon="0.95429">
        <ele>95</ele>
        <time>2014-01-18T13:34:27Z</time>
      </trkpt>
      <trkpt lat="44.45667" lon="0.95445">
        <ele>94</ele>
        <time>2014-01-18T13:34:32Z</time>
      </trkpt>
      <trkpt lat="44.45596" lon="0.95509">
        <ele>95</ele>
        <time>2014-01-18T13:34:50Z</time>
      </trkpt>
      <trkpt lat="44.45589" lon="0.95516">
        <ele>95</ele>
        <time>2014-01-18T13:34:52Z</time>
      </trkpt>
      <trkpt lat="44.45543" lon="0.95567">
        <ele>96</ele>
        <time>2014-01-18T13:35:07Z</time>
      </trkpt>
      <trkpt lat="44.45505" lon="0.95617">
        <ele>96</ele>
        <time>2014-01-18T13:35:22Z</time>
      </trkpt>
      <trkpt lat="44.45465" lon="0.95679">
        <ele>97</ele>
        <time>2014-01-18T13:35:38Z</time>
      </trkpt>
      <trkpt lat="44.45432" lon="0.95738">
        <ele>98</ele>
        <time>2014-01-18T13:35:52Z</time>
      </trkpt>
      <trkpt lat="44.45401" lon="0.95794">
        <ele>97</ele>
        <time>2014-01-18T13:36:07Z</time>
      </trkpt>
      <trkpt lat="44.45378" lon="0.95831">
        <ele>97</ele>
        <time>2014-01-18T13:36:22Z</time>
      </trkpt>
      <trkpt lat="44.45378" lon="0.95832">
        <ele>98</ele>
        <time>2014-01-18T13:36:39Z</time>
      </trkpt>
      <trkpt lat="44.45378" lon="0.95834">
        <ele>98</ele>
        <time>2014-01-18T13:37:04Z</time>
      </trkpt>
      <trkpt lat="44.45378" lon="0.95835">
        <ele>98</ele>
        <time>2014-01-18T13:37:10Z</time>
      </trkpt>
      <trkpt lat="44.45378" lon="0.95838">
        <ele>98</ele>
        <time>2014-01-18T13:37:11Z</time>
      </trkpt>
      <trkpt lat="44.45378" lon="0.95842">
        <ele>98</ele>
        <time>2014-01-18T13:37:12Z</time>
      </trkpt>
      <trkpt lat="44.45379" lon="0.95846">
        <ele>98</ele>
        <time>2014-01-18T13:37:13Z</time>
      </trkpt>
      <trkpt lat="44.45381" lon="0.9585">
        <ele>98</ele>
        <time>2014-01-18T13:37:14Z</time>
      </trkpt>
      <trkpt lat="44.45383" lon="0.95855">
        <ele>98</ele>
        <time>2014-01-18T13:37:15Z</time>
      </trkpt>
      <trkpt lat="44.45385" lon="0.9586">
        <ele>98</ele>
        <time>2014-01-18T13:37:16Z</time>
      </trkpt>
      <trkpt lat="44.45391" lon="0.95877">
        <ele>97</ele>
        <time>2014-01-18T13:37:19Z</time>
      </trkpt>
      <trkpt lat="44.45392" lon="0.95884">
        <ele>97</ele>
        <time>2014-01-18T13:37:20Z</time>
      </trkpt>
      <trkpt lat="44.4539" lon="0.9589">
        <ele>97</ele>
        <time>2014-01-18T13:37:21Z</time>
      </trkpt>
      <trkpt lat="44.45388" lon="0.95896">
        <ele>97</ele>
        <time>2014-01-18T13:37:22Z</time>
      </trkpt>
      <trkpt lat="44.45386" lon="0.959">
        <ele>97</ele>
        <time>2014-01-18T13:37:23Z</time>
      </trkpt>
      <trkpt lat="44.45383" lon="0.95905">
        <ele>97</ele>
        <time>2014-01-18T13:37:24Z</time>
      </trkpt>
      <trkpt lat="44.45378" lon="0.95914">
        <ele>97</ele>
        <time>2014-01-18T13:37:26Z</time>
      </trkpt>
      <trkpt lat="44.45375" lon="0.95919">
        <ele>97</ele>
        <time>2014-01-18T13:37:27Z</time>
      </trkpt>
      <trkpt lat="44.45372" lon="0.95923">
        <ele>97</ele>
        <time>2014-01-18T13:37:28Z</time>
      </trkpt>
      <trkpt lat="44.45362" lon="0.95936">
        <ele>96</ele>
        <time>2014-01-18T13:37:31Z</time>
      </trkpt>
      <trkpt lat="44.45354" lon="0.95943">
        <ele>96</ele>
        <time>2014-01-18T13:37:33Z</time>
      </trkpt>
      <trkpt lat="44.45283" lon="0.95975">
        <ele>98</ele>
        <time>2014-01-18T13:37:49Z</time>
      </trkpt>
      <trkpt lat="44.45222" lon="0.96022">
        <ele>99</ele>
        <time>2014-01-18T13:38:04Z</time>
      </trkpt>
      <trkpt lat="44.45147" lon="0.96096">
        <ele>101</ele>
        <time>2014-01-18T13:38:23Z</time>
      </trkpt>
      <trkpt lat="44.45108" lon="0.96132">
        <ele>103</ele>
        <time>2014-01-18T13:38:33Z</time>
      </trkpt>
      <trkpt lat="44.45047" lon="0.96198">
        <ele>106</ele>
        <time>2014-01-18T13:38:50Z</time>
      </trkpt>
      <trkpt lat="44.45029" lon="0.96217">
        <ele>106</ele>
        <time>2014-01-18T13:38:55Z</time>
      </trkpt>
      <trkpt lat="44.44979" lon="0.96291">
        <ele>100</ele>
        <time>2014-01-18T13:39:07Z</time>
      </trkpt>
      <trkpt lat="44.44975" lon="0.96301">
        <ele>100</ele>
        <time>2014-01-18T13:39:08Z</time>
      </trkpt>
      <trkpt lat="44.44957" lon="0.96359">
        <ele>97</ele>
        <time>2014-01-18T13:39:14Z</time>
      </trkpt>
      <trkpt lat="44.44955" lon="0.96368">
        <ele>97</ele>
        <time>2014-01-18T13:39:15Z</time>
      </trkpt>
      <trkpt lat="44.44941" lon="0.96414">
        <ele>97</ele>
        <time>2014-01-18T13:39:25Z</time>
      </trkpt>
      <trkpt lat="44.44941" lon="0.96417">
        <ele>102</ele>
        <time>2014-01-18T13:39:47Z</time>
      </trkpt>
      <trkpt lat="44.44942" lon="0.96422">
        <ele>104</ele>
        <time>2014-01-18T13:39:51Z</time>
      </trkpt>
      <trkpt lat="44.44943" lon="0.96425">
        <ele>104</ele>
        <time>2014-01-18T13:39:52Z</time>
      </trkpt>
      <trkpt lat="44.44946" lon="0.96429">
        <ele>104</ele>
        <time>2014-01-18T13:39:53Z</time>
      </trkpt>
      <trkpt lat="44.45001" lon="0.96489">
        <ele>102</ele>
        <time>2014-01-18T13:40:06Z</time>
      </trkpt>
      <trkpt lat="44.45039" lon="0.96531">
        <ele>100</ele>
        <time>2014-01-18T13:40:16Z</time>
      </trkpt>
      <trkpt lat="44.45054" lon="0.96538">
        <ele>100</ele>
        <time>2014-01-18T13:40:28Z</time>
      </trkpt>
      <trkpt lat="44.45059" lon="0.96537">
        <ele>100</ele>
        <time>2014-01-18T13:40:29Z</time>
      </trkpt>
      <trkpt lat="44.45126" lon="0.96538">
        <ele>100</ele>
        <time>2014-01-18T13:40:44Z</time>
      </trkpt>
      <trkpt lat="44.45127" lon="0.96543">
        <ele>100</ele>
        <time>2014-01-18T13:40:45Z</time>
      </trkpt>
      <trkpt lat="44.45125" lon="0.96547">
        <ele>100</ele>
        <time>2014-01-18T13:40:46Z</time>
      </trkpt>
      <trkpt lat="44.45123" lon="0.96552">
        <ele>100</ele>
        <time>2014-01-18T13:40:47Z</time>
      </trkpt>
      <trkpt lat="44.45121" lon="0.96557">
        <ele>100</ele>
        <time>2014-01-18T13:40:48Z</time>
      </trkpt>
      <trkpt lat="44.45119" lon="0.96563">
        <ele>100</ele>
        <time>2014-01-18T13:40:49Z</time>
      </trkpt>
      <trkpt lat="44.45117" lon="0.96569">
        <ele>100</ele>
        <time>2014-01-18T13:40:50Z</time>
      </trkpt>
      <trkpt lat="44.45104" lon="0.96608">
        <ele>101</ele>
        <time>2014-01-18T13:40:57Z</time>
      </trkpt>
      <trkpt lat="44.45086" lon="0.96657">
        <ele>103</ele>
        <time>2014-01-18T13:41:06Z</time>
      </trkpt>
      <trkpt lat="44.45066" lon="0.96701">
        <ele>104</ele>
        <time>2014-01-18T13:41:14Z</time>
      </trkpt>
      <trkpt lat="44.45024" lon="0.9678">
        <ele>104</ele>
        <time>2014-01-18T13:41:27Z</time>
      </trkpt>
      <trkpt lat="44.44978" lon="0.96871">
        <ele>106</ele>
        <time>2014-01-18T13:41:43Z</time>
      </trkpt>
      <trkpt lat="44.44947" lon="0.9693">
        <ele>108</ele>
        <time>2014-01-18T13:41:54Z</time>
      </trkpt>
      <trkpt lat="44.44904" lon="0.97013">
        <ele>111</ele>
        <time>2014-01-18T13:42:09Z</time>
      </trkpt>
      <trkpt lat="44.44901" lon="0.97019">
        <ele>111</ele>
        <time>2014-01-18T13:42:10Z</time>
      </trkpt>
      <trkpt lat="44.44893" lon="0.97035">
        <ele>112</ele>
        <time>2014-01-18T13:42:13Z</time>
      </trkpt>
      <trkpt lat="44.4489" lon="0.9704">
        <ele>112</ele>
        <time>2014-01-18T13:42:14Z</time>
      </trkpt>
      <trkpt lat="44.44836" lon="0.97138">
        <ele>112</ele>
        <time>2014-01-18T13:42:32Z</time>
      </trkpt>
      <trkpt lat="44.44788" lon="0.97223">
        <ele>112</ele>
        <time>2014-01-18T13:42:48Z</time>
      </trkpt>
      <trkpt lat="44.44771" lon="0.9725">
        <ele>112</ele>
        <time>2014-01-18T13:42:53Z</time>
      </trkpt>
      <trkpt lat="44.44711" lon="0.97343">
        <ele>110</ele>
        <time>2014-01-18T13:43:10Z</time>
      </trkpt>
      <trkpt lat="44.44661" lon="0.97445">
        <ele>107</ele>
        <time>2014-01-18T13:43:26Z</time>
      </trkpt>
      <trkpt lat="44.44631" lon="0.97553">
        <ele>107</ele>
        <time>2014-01-18T13:43:42Z</time>
      </trkpt>
      <trkpt lat="44.44604" lon="0.97675">
        <ele>110</ele>
        <time>2014-01-18T13:44:01Z</time>
      </trkpt>
      <trkpt lat="44.44605" lon="0.97729">
        <ele>112</ele>
        <time>2014-01-18T13:44:09Z</time>
      </trkpt>
      <trkpt lat="44.44602" lon="0.9776">
        <ele>113</ele>
        <time>2014-01-18T13:44:14Z</time>
      </trkpt>
      <trkpt lat="44.44587" lon="0.97822">
        <ele>114</ele>
        <time>2014-01-18T13:44:24Z</time>
      </trkpt>
      <trkpt lat="44.44587" lon="0.97829">
        <ele>114</ele>
        <time>2014-01-18T13:44:25Z</time>
      </trkpt>
      <trkpt lat="44.44587" lon="0.97835">
        <ele>114</ele>
        <time>2014-01-18T13:44:26Z</time>
      </trkpt>
      <trkpt lat="44.44586" lon="0.97841">
        <ele>114</ele>
        <time>2014-01-18T13:44:27Z</time>
      </trkpt>
      <trkpt lat="44.44585" lon="0.97847">
        <ele>114</ele>
        <time>2014-01-18T13:44:28Z</time>
      </trkpt>
      <trkpt lat="44.44584" lon="0.97852">
        <ele>114</ele>
        <time>2014-01-18T13:44:29Z</time>
      </trkpt>
      <trkpt lat="44.44585" lon="0.97864">
        <ele>114</ele>
        <time>2014-01-18T13:44:31Z</time>
      </trkpt>
      <trkpt lat="44.44587" lon="0.97869">
        <ele>114</ele>
        <time>2014-01-18T13:44:32Z</time>
      </trkpt>
      <trkpt lat="44.44591" lon="0.97872">
        <ele>114</ele>
        <time>2014-01-18T13:44:33Z</time>
      </trkpt>
      <trkpt lat="44.44594" lon="0.97874">
        <ele>114</ele>
        <time>2014-01-18T13:44:34Z</time>
      </trkpt>
      <trkpt lat="44.44597" lon="0.97874">
        <ele>115</ele>
        <time>2014-01-18T13:44:35Z</time>
      </trkpt>
      <trkpt lat="44.446" lon="0.97874">
        <ele>116</ele>
        <time>2014-01-18T13:44:36Z</time>
      </trkpt>
      <trkpt lat="44.44603" lon="0.97874">
        <ele>116</ele>
        <time>2014-01-18T13:44:37Z</time>
      </trkpt>
      <trkpt lat="44.4464" lon="0.97872">
        <ele>120</ele>
        <time>2014-01-18T13:44:50Z</time>
      </trkpt>
      <trkpt lat="44.44671" lon="0.97876">
        <ele>125</ele>
        <time>2014-01-18T13:45:02Z</time>
      </trkpt>
      <trkpt lat="44.44701" lon="0.97885">
        <ele>130</ele>
        <time>2014-01-18T13:45:14Z</time>
      </trkpt>
      <trkpt lat="44.4473" lon="0.97895">
        <ele>135</ele>
        <time>2014-01-18T13:45:27Z</time>
      </trkpt>
      <trkpt lat="44.44753" lon="0.97906">
        <ele>138</ele>
        <time>2014-01-18T13:45:39Z</time>
      </trkpt>
      <trkpt lat="44.44754" lon="0.97906">
        <ele>138</ele>
        <time>2014-01-18T13:45:42Z</time>
      </trkpt>
      <trkpt lat="44.44756" lon="0.97906">
        <ele>138</ele>
        <time>2014-01-18T13:45:43Z</time>
      </trkpt>
      <trkpt lat="44.44757" lon="0.97907">
        <ele>139</ele>
        <time>2014-01-18T13:45:44Z</time>
      </trkpt>
      <trkpt lat="44.44758" lon="0.97908">
        <ele>139</ele>
        <time>2014-01-18T13:45:45Z</time>
      </trkpt>
      <trkpt lat="44.4476" lon="0.97908">
        <ele>139</ele>
        <time>2014-01-18T13:45:46Z</time>
      </trkpt>
      <trkpt lat="44.44761" lon="0.97908">
        <ele>140</ele>
        <time>2014-01-18T13:45:47Z</time>
      </trkpt>
      <trkpt lat="44.44762" lon="0.97908">
        <ele>140</ele>
        <time>2014-01-18T13:45:48Z</time>
      </trkpt>
      <trkpt lat="44.4478" lon="0.97914">
        <ele>143</ele>
        <time>2014-01-18T13:46:02Z</time>
      </trkpt>
      <trkpt lat="44.44798" lon="0.97919">
        <ele>145</ele>
        <time>2014-01-18T13:46:17Z</time>
      </trkpt>
      <trkpt lat="44.44815" lon="0.97924">
        <ele>148</ele>
        <time>2014-01-18T13:46:31Z</time>
      </trkpt>
      <trkpt lat="44.44838" lon="0.97931">
        <ele>148</ele>
        <time>2014-01-18T13:46:49Z</time>
      </trkpt>
      <trkpt lat="44.44858" lon="0.97938">
        <ele>149</ele>
        <time>2014-01-18T13:47:06Z</time>
      </trkpt>
      <trkpt lat="44.44858" lon="0.97938">
        <ele>149</ele>
        <time>2014-01-18T13:47:20Z</time>
      </trkpt>
      <trkpt lat="44.44873" lon="0.9794">
        <ele>151</ele>
        <time>2014-01-18T13:47:32Z</time>
      </trkpt>
      <trkpt lat="44.44899" lon="0.97951">
        <ele>153</ele>
        <time>2014-01-18T13:47:43Z</time>
      </trkpt>
      <trkpt lat="44.44925" lon="0.97955">
        <ele>157</ele>
        <time>2014-01-18T13:47:53Z</time>
      </trkpt>
      <trkpt lat="44.44956" lon="0.97957">
        <ele>162</ele>
        <time>2014-01-18T13:48:05Z</time>
      </trkpt>
      <trkpt lat="44.44984" lon="0.97955">
        <ele>164</ele>
        <time>2014-01-18T13:48:16Z</time>
      </trkpt>
      <trkpt lat="44.45017" lon="0.97952">
        <ele>166</ele>
        <time>2014-01-18T13:48:29Z</time>
      </trkpt>
      <trkpt lat="44.45044" lon="0.97947">
        <ele>170</ele>
        <time>2014-01-18T13:48:40Z</time>
      </trkpt>
      <trkpt lat="44.45079" lon="0.97938">
        <ele>173</ele>
        <time>2014-01-18T13:48:52Z</time>
      </trkpt>
      <trkpt lat="44.45115" lon="0.97932">
        <ele>174</ele>
        <time>2014-01-18T13:49:04Z</time>
      </trkpt>
      <trkpt lat="44.45163" lon="0.97925">
        <ele>176</ele>
        <time>2014-01-18T13:49:19Z</time>
      </trkpt>
      <trkpt lat="44.45165" lon="0.97923">
        <ele>176</ele>
        <time>2014-01-18T13:49:20Z</time>
      </trkpt>
      <trkpt lat="44.45169" lon="0.97919">
        <ele>177</ele>
        <time>2014-01-18T13:49:23Z</time>
      </trkpt>
      <trkpt lat="44.4517" lon="0.97921">
        <ele>177</ele>
        <time>2014-01-18T13:49:34Z</time>
      </trkpt>
      <trkpt lat="44.4517" lon="0.97921">
        <ele>176</ele>
        <time>2014-01-18T13:49:55Z</time>
      </trkpt>
      <trkpt lat="44.45171" lon="0.97921">
        <ele>176</ele>
        <time>2014-01-18T13:50:16Z</time>
      </trkpt>
      <trkpt lat="44.45171" lon="0.97921">
        <ele>175</ele>
        <time>2014-01-18T13:50:39Z</time>
      </trkpt>
      <trkpt lat="44.45171" lon="0.97921">
        <ele>175</ele>
        <time>2014-01-18T13:50:58Z</time>
      </trkpt>
      <trkpt lat="44.45171" lon="0.97921">
        <ele>174</ele>
        <time>2014-01-18T13:51:22Z</time>
      </trkpt>
      <trkpt lat="44.45172" lon="0.97923">
        <ele>174</ele>
        <time>2014-01-18T13:51:34Z</time>
      </trkpt>
      <trkpt lat="44.45175" lon="0.97957">
        <ele>175</ele>
        <time>2014-01-18T13:51:46Z</time>
      </trkpt>
      <trkpt lat="44.45173" lon="0.98002">
        <ele>178</ele>
        <time>2014-01-18T13:51:59Z</time>
      </trkpt>
      <trkpt lat="44.45172" lon="0.98027">
        <ele>178</ele>
        <time>2014-01-18T13:52:09Z</time>
      </trkpt>
      <trkpt lat="44.45172" lon="0.9807">
        <ele>179</ele>
        <time>2014-01-18T13:52:24Z</time>
      </trkpt>
      <trkpt lat="44.45176" lon="0.98109">
        <ele>181</ele>
        <time>2014-01-18T13:52:35Z</time>
      </trkpt>
      <trkpt lat="44.4519" lon="0.98139">
        <ele>181</ele>
        <time>2014-01-18T13:52:47Z</time>
      </trkpt>
      <trkpt lat="44.45207" lon="0.98161">
        <ele>179</ele>
        <time>2014-01-18T13:52:54Z</time>
      </trkpt>
      <trkpt lat="44.45224" lon="0.98177">
        <ele>178</ele>
        <time>2014-01-18T13:52:59Z</time>
      </trkpt>
      <trkpt lat="44.45257" lon="0.98201">
        <ele>176</ele>
        <time>2014-01-18T13:53:10Z</time>
      </trkpt>
      <trkpt lat="44.4529" lon="0.98219">
        <ele>178</ele>
        <time>2014-01-18T13:53:22Z</time>
      </trkpt>
      <trkpt lat="44.45301" lon="0.98224">
        <ele>179</ele>
        <time>2014-01-18T13:53:27Z</time>
      </trkpt>
      <trkpt lat="44.45305" lon="0.98228">
        <ele>179</ele>
        <time>2014-01-18T13:53:30Z</time>
      </trkpt>
      <trkpt lat="44.45308" lon="0.98233">
        <ele>179</ele>
        <time>2014-01-18T13:53:42Z</time>
      </trkpt>
      <trkpt lat="44.4531" lon="0.98244">
        <ele>179</ele>
        <time>2014-01-18T13:53:46Z</time>
      </trkpt>
      <trkpt lat="44.45318" lon="0.98289">
        <ele>179</ele>
        <time>2014-01-18T13:53:59Z</time>
      </trkpt>
      <trkpt lat="44.45321" lon="0.98336">
        <ele>180</ele>
        <time>2014-01-18T13:54:11Z</time>
      </trkpt>
      <trkpt lat="44.45325" lon="0.9839">
        <ele>180</ele>
        <time>2014-01-18T13:54:24Z</time>
      </trkpt>
      <trkpt lat="44.45326" lon="0.98417">
        <ele>181</ele>
        <time>2014-01-18T13:54:32Z</time>
      </trkpt>
      <trkpt lat="44.45326" lon="0.9842">
        <ele>181</ele>
        <time>2014-01-18T13:54:33Z</time>
      </trkpt>
      <trkpt lat="44.45326" lon="0.98423">
        <ele>181</ele>
        <time>2014-01-18T13:54:34Z</time>
      </trkpt>
      <trkpt lat="44.45327" lon="0.98444">
        <ele>182</ele>
        <time>2014-01-18T13:54:43Z</time>
      </trkpt>
      <trkpt lat="44.45327" lon="0.98467">
        <ele>184</ele>
        <time>2014-01-18T13:54:53Z</time>
      </trkpt>
      <trkpt lat="44.45326" lon="0.98469">
        <ele>184</ele>
        <time>2014-01-18T13:54:54Z</time>
      </trkpt>
      <trkpt lat="44.45326" lon="0.98471">
        <ele>184</ele>
        <time>2014-01-18T13:54:55Z</time>
      </trkpt>
      <trkpt lat="44.45325" lon="0.98473">
        <ele>184</ele>
        <time>2014-01-18T13:54:56Z</time>
      </trkpt>
      <trkpt lat="44.45324" lon="0.98475">
        <ele>184</ele>
        <time>2014-01-18T13:54:57Z</time>
      </trkpt>
      <trkpt lat="44.45323" lon="0.98478">
        <ele>185</ele>
        <time>2014-01-18T13:54:58Z</time>
      </trkpt>
      <trkpt lat="44.45323" lon="0.98481">
        <ele>185</ele>
        <time>2014-01-18T13:54:59Z</time>
      </trkpt>
      <trkpt lat="44.45323" lon="0.98484">
        <ele>185</ele>
        <time>2014-01-18T13:55:00Z</time>
      </trkpt>
      <trkpt lat="44.45324" lon="0.98487">
        <ele>185</ele>
        <time>2014-01-18T13:55:01Z</time>
      </trkpt>
      <trkpt lat="44.45325" lon="0.98527">
        <ele>186</ele>
        <time>2014-01-18T13:55:16Z</time>
      </trkpt>
      <trkpt lat="44.45323" lon="0.98568">
        <ele>187</ele>
        <time>2014-01-18T13:55:30Z</time>
      </trkpt>
      <trkpt lat="44.45321" lon="0.986">
        <ele>189</ele>
        <time>2014-01-18T13:55:43Z</time>
      </trkpt>
      <trkpt lat="44.4532" lon="0.98633">
        <ele>190</ele>
        <time>2014-01-18T13:55:57Z</time>
      </trkpt>
      <trkpt lat="44.45321" lon="0.98668">
        <ele>191</ele>
        <time>2014-01-18T13:56:11Z</time>
      </trkpt>
      <trkpt lat="44.45321" lon="0.98701">
        <ele>193</ele>
        <time>2014-01-18T13:56:24Z</time>
      </trkpt>
      <trkpt lat="44.45322" lon="0.98736">
        <ele>195</ele>
        <time>2014-01-18T13:56:37Z</time>
      </trkpt>
      <trkpt lat="44.45323" lon="0.98763">
        <ele>197</ele>
        <time>2014-01-18T13:56:48Z</time>
      </trkpt>
      <trkpt lat="44.45323" lon="0.98774">
        <ele>198</ele>
        <time>2014-01-18T13:56:52Z</time>
      </trkpt>
      <trkpt lat="44.45323" lon="0.98781">
        <ele>198</ele>
        <time>2014-01-18T13:56:55Z</time>
      </trkpt>
      <trkpt lat="44.45329" lon="0.98804">
        <ele>199</ele>
        <time>2014-01-18T13:57:05Z</time>
      </trkpt>
      <trkpt lat="44.45334" lon="0.98832">
        <ele>198</ele>
        <time>2014-01-18T13:57:13Z</time>
      </trkpt>
      <trkpt lat="44.45333" lon="0.98837">
        <ele>198</ele>
        <time>2014-01-18T13:57:14Z</time>
      </trkpt>
      <trkpt lat="44.4533" lon="0.98842">
        <ele>197</ele>
        <time>2014-01-18T13:57:15Z</time>
      </trkpt>
      <trkpt lat="44.45327" lon="0.98845">
        <ele>197</ele>
        <time>2014-01-18T13:57:16Z</time>
      </trkpt>
      <trkpt lat="44.45323" lon="0.98848">
        <ele>197</ele>
        <time>2014-01-18T13:57:17Z</time>
      </trkpt>
      <trkpt lat="44.4532" lon="0.9885">
        <ele>197</ele>
        <time>2014-01-18T13:57:18Z</time>
      </trkpt>
      <trkpt lat="44.45276" lon="0.98883">
        <ele>198</ele>
        <time>2014-01-18T13:57:32Z</time>
      </trkpt>
      <trkpt lat="44.45244" lon="0.98905">
        <ele>202</ele>
        <time>2014-01-18T13:57:43Z</time>
      </trkpt>
      <trkpt lat="44.4523" lon="0.98909">
        <ele>202</ele>
        <time>2014-01-18T13:57:48Z</time>
      </trkpt>
      <trkpt lat="44.45228" lon="0.98911">
        <ele>202</ele>
        <time>2014-01-18T13:57:49Z</time>
      </trkpt>
      <trkpt lat="44.45223" lon="0.98936">
        <ele>203</ele>
        <time>2014-01-18T13:57:56Z</time>
      </trkpt>
      <trkpt lat="44.45226" lon="0.98995">
        <ele>202</ele>
        <time>2014-01-18T13:58:12Z</time>
      </trkpt>
      <trkpt lat="44.45228" lon="0.99003">
        <ele>202</ele>
        <time>2014-01-18T13:58:23Z</time>
      </trkpt>
      <trkpt lat="44.45228" lon="0.99003">
        <ele>202</ele>
        <time>2014-01-18T13:58:48Z</time>
      </trkpt>
      <trkpt lat="44.45228" lon="0.99002">
        <ele>202</ele>
        <time>2014-01-18T13:59:13Z</time>
      </trkpt>
      <trkpt lat="44.45228" lon="0.99002">
        <ele>202</ele>
        <time>2014-01-18T13:59:31Z</time>
      </trkpt>
      <trkpt lat="44.45234" lon="0.99011">
        <ele>202</ele>
        <time>2014-01-18T13:59:36Z</time>
      </trkpt>
      <trkpt lat="44.45255" lon="0.99041">
        <ele>202</ele>
        <time>2014-01-18T13:59:52Z</time>
      </trkpt>
      <trkpt lat="44.45257" lon="0.99043">
        <ele>203</ele>
        <time>2014-01-18T14:00:03Z</time>
      </trkpt>
      <trkpt lat="44.45258" lon="0.99043">
        <ele>203</ele>
        <time>2014-01-18T14:00:16Z</time>
      </trkpt>
      <trkpt lat="44.45266" lon="0.99051">
        <ele>203</ele>
        <time>2014-01-18T14:00:23Z</time>
      </trkpt>
      <trkpt lat="44.45285" lon="0.99102">
        <ele>204</ele>
        <time>2014-01-18T14:00:36Z</time>
      </trkpt>
      <trkpt lat="44.45297" lon="0.99136">
        <ele>203</ele>
        <time>2014-01-18T14:00:43Z</time>
      </trkpt>
      <trkpt lat="44.45343" lon="0.99184">
        <ele>202</ele>
        <time>2014-01-18T14:00:57Z</time>
      </trkpt>
      <trkpt lat="44.45407" lon="0.99223">
        <ele>200</ele>
        <time>2014-01-18T14:01:12Z</time>
      </trkpt>
      <trkpt lat="44.4547" lon="0.99269">
        <ele>197</ele>
        <time>2014-01-18T14:01:28Z</time>
      </trkpt>
      <trkpt lat="44.45516" lon="0.993">
        <ele>196</ele>
        <time>2014-01-18T14:01:39Z</time>
      </trkpt>
      <trkpt lat="44.45586" lon="0.99348">
        <ele>193</ele>
        <time>2014-01-18T14:01:52Z</time>
      </trkpt>
      <trkpt lat="44.45657" lon="0.99391">
        <ele>196</ele>
        <time>2014-01-18T14:02:07Z</time>
      </trkpt>
      <trkpt lat="44.45734" lon="0.99421">
        <ele>195</ele>
        <time>2014-01-18T14:02:22Z</time>
      </trkpt>
      <trkpt lat="44.45744" lon="0.99425">
        <ele>195</ele>
        <time>2014-01-18T14:02:24Z</time>
      </trkpt>
      <trkpt lat="44.45819" lon="0.99436">
        <ele>188</ele>
        <time>2014-01-18T14:02:34Z</time>
      </trkpt>
      <trkpt lat="44.45941" lon="0.99426">
        <ele>180</ele>
        <time>2014-01-18T14:02:47Z</time>
      </trkpt>
      <trkpt lat="44.46039" lon="0.99417">
        <ele>181</ele>
        <time>2014-01-18T14:03:01Z</time>
      </trkpt>
      <trkpt lat="44.46052" lon="0.99416">
        <ele>182</ele>
        <time>2014-01-18T14:03:03Z</time>
      </trkpt>
      <trkpt lat="44.46058" lon="0.99415">
        <ele>182</ele>
        <time>2014-01-18T14:03:04Z</time>
      </trkpt>
      <trkpt lat="44.46097" lon="0.99419">
        <ele>183</ele>
        <time>2014-01-18T14:03:14Z</time>
      </trkpt>
      <trkpt lat="44.461" lon="0.99421">
        <ele>183</ele>
        <time>2014-01-18T14:03:16Z</time>
      </trkpt>
      <trkpt lat="44.46104" lon="0.99423">
        <ele>183</ele>
        <time>2014-01-18T14:03:23Z</time>
      </trkpt>
      <trkpt lat="44.46106" lon="0.99425">
        <ele>183</ele>
        <time>2014-01-18T14:03:24Z</time>
      </trkpt>
      <trkpt lat="44.46108" lon="0.99427">
        <ele>183</ele>
        <time>2014-01-18T14:03:25Z</time>
      </trkpt>
      <trkpt lat="44.4611" lon="0.9943">
        <ele>183</ele>
        <time>2014-01-18T14:03:26Z</time>
      </trkpt>
      <trkpt lat="44.46112" lon="0.99434">
        <ele>183</ele>
        <time>2014-01-18T14:03:27Z</time>
      </trkpt>
      <trkpt lat="44.4614" lon="0.99475">
        <ele>184</ele>
        <time>2014-01-18T14:03:38Z</time>
      </trkpt>
      <trkpt lat="44.4616" lon="0.99524">
        <ele>184</ele>
        <time>2014-01-18T14:03:48Z</time>
      </trkpt>
      <trkpt lat="44.46162" lon="0.99529">
        <ele>184</ele>
        <time>2014-01-18T14:03:49Z</time>
      </trkpt>
      <trkpt lat="44.46171" lon="0.99556">
        <ele>184</ele>
        <time>2014-01-18T14:03:54Z</time>
      </trkpt>
      <trkpt lat="44.46173" lon="0.99561">
        <ele>184</ele>
        <time>2014-01-18T14:03:55Z</time>
      </trkpt>
      <trkpt lat="44.46179" lon="0.99577">
        <ele>184</ele>
        <time>2014-01-18T14:03:58Z</time>
      </trkpt>
      <trkpt lat="44.46182" lon="0.99581">
        <ele>184</ele>
        <time>2014-01-18T14:03:59Z</time>
      </trkpt>
      <trkpt lat="44.46206" lon="0.99649">
        <ele>187</ele>
        <time>2014-01-18T14:04:14Z</time>
      </trkpt>
      <trkpt lat="44.46224" lon="0.99699">
        <ele>190</ele>
        <time>2014-01-18T14:04:26Z</time>
      </trkpt>
      <trkpt lat="44.46245" lon="0.99748">
        <ele>191</ele>
        <time>2014-01-18T14:04:38Z</time>
      </trkpt>
      <trkpt lat="44.4626" lon="0.99781">
        <ele>192</ele>
        <time>2014-01-18T14:04:48Z</time>
      </trkpt>
      <trkpt lat="44.46273" lon="0.99811">
        <ele>192</ele>
        <time>2014-01-18T14:05:00Z</time>
      </trkpt>
      <trkpt lat="44.46278" lon="0.99818">
        <ele>193</ele>
        <time>2014-01-18T14:05:04Z</time>
      </trkpt>
      <trkpt lat="44.46285" lon="0.99837">
        <ele>194</ele>
        <time>2014-01-18T14:05:13Z</time>
      </trkpt>
      <trkpt lat="44.46285" lon="0.9984">
        <ele>194</ele>
        <time>2014-01-18T14:05:14Z</time>
      </trkpt>
      <trkpt lat="44.46286" lon="0.99843">
        <ele>194</ele>
        <time>2014-01-18T14:05:15Z</time>
      </trkpt>
      <trkpt lat="44.46287" lon="0.99845">
        <ele>194</ele>
        <time>2014-01-18T14:05:16Z</time>
      </trkpt>
      <trkpt lat="44.46287" lon="0.99848">
        <ele>194</ele>
        <time>2014-01-18T14:05:17Z</time>
      </trkpt>
      <trkpt lat="44.46288" lon="0.99851">
        <ele>194</ele>
        <time>2014-01-18T14:05:18Z</time>
      </trkpt>
      <trkpt lat="44.46289" lon="0.99854">
        <ele>193</ele>
        <time>2014-01-18T14:05:19Z</time>
      </trkpt>
      <trkpt lat="44.46305" lon="0.99896">
        <ele>192</ele>
        <time>2014-01-18T14:05:30Z</time>
      </trkpt>
      <trkpt lat="44.46329" lon="0.99977">
        <ele>188</ele>
        <time>2014-01-18T14:05:40Z</time>
      </trkpt>
      <trkpt lat="44.4638" lon="1.00114">
        <ele>186</ele>
        <time>2014-01-18T14:05:54Z</time>
      </trkpt>
      <trkpt lat="44.46393" lon="1.00184">
        <ele>188</ele>
        <time>2014-01-18T14:06:06Z</time>
      </trkpt>
      <trkpt lat="44.46403" lon="1.00255">
        <ele>189</ele>
        <time>2014-01-18T14:06:20Z</time>
      </trkpt>
      <trkpt lat="44.46404" lon="1.00266">
        <ele>190</ele>
        <time>2014-01-18T14:06:22Z</time>
      </trkpt>
      <trkpt lat="44.46404" lon="1.00272">
        <ele>190</ele>
        <time>2014-01-18T14:06:23Z</time>
      </trkpt>
      <trkpt lat="44.46396" lon="1.00343">
        <ele>192</ele>
        <time>2014-01-18T14:06:36Z</time>
      </trkpt>
      <trkpt lat="44.46395" lon="1.00349">
        <ele>191</ele>
        <time>2014-01-18T14:06:37Z</time>
      </trkpt>
      <trkpt lat="44.46371" lon="1.00417">
        <ele>195</ele>
        <time>2014-01-18T14:06:51Z</time>
      </trkpt>
      <trkpt lat="44.46342" lon="1.00491">
        <ele>199</ele>
        <time>2014-01-18T14:07:07Z</time>
      </trkpt>
      <trkpt lat="44.46319" lon="1.0055">
        <ele>200</ele>
        <time>2014-01-18T14:07:20Z</time>
      </trkpt>
      <trkpt lat="44.46306" lon="1.00592">
        <ele>200</ele>
        <time>2014-01-18T14:07:27Z</time>
      </trkpt>
      <trkpt lat="44.46289" lon="1.00699">
        <ele>200</ele>
        <time>2014-01-18T14:07:43Z</time>
      </trkpt>
      <trkpt lat="44.46274" lon="1.0081">
        <ele>201</ele>
        <time>2014-01-18T14:08:00Z</time>
      </trkpt>
      <trkpt lat="44.4626" lon="1.00901">
        <ele>201</ele>
        <time>2014-01-18T14:08:15Z</time>
      </trkpt>
      <trkpt lat="44.46262" lon="1.01009">
        <ele>202</ele>
        <time>2014-01-18T14:08:33Z</time>
      </trkpt>
      <trkpt lat="44.46266" lon="1.011">
        <ele>206</ele>
        <time>2014-01-18T14:08:49Z</time>
      </trkpt>
      <trkpt lat="44.46269" lon="1.01155">
        <ele>208</ele>
        <time>2014-01-18T14:08:59Z</time>
      </trkpt>
      <trkpt lat="44.4627" lon="1.01161">
        <ele>208</ele>
        <time>2014-01-18T14:09:00Z</time>
      </trkpt>
      <trkpt lat="44.4627" lon="1.01166">
        <ele>208</ele>
        <time>2014-01-18T14:09:01Z</time>
      </trkpt>
      <trkpt lat="44.46273" lon="1.0128">
        <ele>206</ele>
        <time>2014-01-18T14:09:20Z</time>
      </trkpt>
      <trkpt lat="44.46272" lon="1.013">
        <ele>205</ele>
        <time>2014-01-18T14:09:23Z</time>
      </trkpt>
      <trkpt lat="44.46271" lon="1.01306">
        <ele>205</ele>
        <time>2014-01-18T14:09:24Z</time>
      </trkpt>
      <trkpt lat="44.46269" lon="1.01313">
        <ele>205</ele>
        <time>2014-01-18T14:09:25Z</time>
      </trkpt>
      <trkpt lat="44.46267" lon="1.01319">
        <ele>205</ele>
        <time>2014-01-18T14:09:26Z</time>
      </trkpt>
      <trkpt lat="44.46264" lon="1.01324">
        <ele>205</ele>
        <time>2014-01-18T14:09:27Z</time>
      </trkpt>
      <trkpt lat="44.46261" lon="1.01329">
        <ele>205</ele>
        <time>2014-01-18T14:09:28Z</time>
      </trkpt>
      <trkpt lat="44.46258" lon="1.01333">
        <ele>205</ele>
        <time>2014-01-18T14:09:29Z</time>
      </trkpt>
      <trkpt lat="44.46254" lon="1.01337">
        <ele>205</ele>
        <time>2014-01-18T14:09:30Z</time>
      </trkpt>
      <trkpt lat="44.4625" lon="1.01338">
        <ele>205</ele>
        <time>2014-01-18T14:09:31Z</time>
      </trkpt>
      <trkpt lat="44.46245" lon="1.0134">
        <ele>205</ele>
        <time>2014-01-18T14:09:32Z</time>
      </trkpt>
      <trkpt lat="44.46241" lon="1.0134">
        <ele>206</ele>
        <time>2014-01-18T14:09:33Z</time>
      </trkpt>
      <trkpt lat="44.46237" lon="1.0134">
        <ele>206</ele>
        <time>2014-01-18T14:09:34Z</time>
      </trkpt>
      <trkpt lat="44.46233" lon="1.0134">
        <ele>206</ele>
        <time>2014-01-18T14:09:35Z</time>
      </trkpt>
      <trkpt lat="44.46205" lon="1.0134">
        <ele>207</ele>
        <time>2014-01-18T14:09:42Z</time>
      </trkpt>
      <trkpt lat="44.46185" lon="1.01344">
        <ele>208</ele>
        <time>2014-01-18T14:09:47Z</time>
      </trkpt>
      <trkpt lat="44.46181" lon="1.01346">
        <ele>208</ele>
        <time>2014-01-18T14:09:48Z</time>
      </trkpt>
      <trkpt lat="44.46177" lon="1.01349">
        <ele>208</ele>
        <time>2014-01-18T14:09:49Z</time>
      </trkpt>
      <trkpt lat="44.46174" lon="1.01353">
        <ele>208</ele>
        <time>2014-01-18T14:09:50Z</time>
      </trkpt>
      <trkpt lat="44.46171" lon="1.01357">
        <ele>208</ele>
        <time>2014-01-18T14:09:51Z</time>
      </trkpt>
      <trkpt lat="44.46168" lon="1.01361">
        <ele>209</ele>
        <time>2014-01-18T14:09:52Z</time>
      </trkpt>
      <trkpt lat="44.46166" lon="1.01366">
        <ele>209</ele>
        <time>2014-01-18T14:09:53Z</time>
      </trkpt>
      <trkpt lat="44.46165" lon="1.01372">
        <ele>209</ele>
        <time>2014-01-18T14:09:54Z</time>
      </trkpt>
      <trkpt lat="44.46141" lon="1.01445">
        <ele>213</ele>
        <time>2014-01-18T14:10:09Z</time>
      </trkpt>
      <trkpt lat="44.46103" lon="1.01527">
        <ele>216</ele>
        <time>2014-01-18T14:10:27Z</time>
      </trkpt>
      <trkpt lat="44.46065" lon="1.01603">
        <ele>218</ele>
        <time>2014-01-18T14:10:43Z</time>
      </trkpt>
      <trkpt lat="44.46032" lon="1.01669">
        <ele>219</ele>
        <time>2014-01-18T14:10:56Z</time>
      </trkpt>
      <trkpt lat="44.4603" lon="1.01674">
        <ele>219</ele>
        <time>2014-01-18T14:10:57Z</time>
      </trkpt>
      <trkpt lat="44.4598" lon="1.0175">
        <ele>219</ele>
        <time>2014-01-18T14:11:13Z</time>
      </trkpt>
      <trkpt lat="44.45939" lon="1.01822">
        <ele>216</ele>
        <time>2014-01-18T14:11:24Z</time>
      </trkpt>
      <trkpt lat="44.45936" lon="1.01831">
        <ele>216</ele>
        <time>2014-01-18T14:11:25Z</time>
      </trkpt>
      <trkpt lat="44.45934" lon="1.0184">
        <ele>216</ele>
        <time>2014-01-18T14:11:26Z</time>
      </trkpt>
      <trkpt lat="44.45932" lon="1.0185">
        <ele>215</ele>
        <time>2014-01-18T14:11:27Z</time>
      </trkpt>
      <trkpt lat="44.4593" lon="1.0186">
        <ele>215</ele>
        <time>2014-01-18T14:11:28Z</time>
      </trkpt>
      <trkpt lat="44.45908" lon="1.02011">
        <ele>210</ele>
        <time>2014-01-18T14:11:42Z</time>
      </trkpt>
      <trkpt lat="44.45895" lon="1.02176">
        <ele>198</ele>
        <time>2014-01-18T14:11:55Z</time>
      </trkpt>
      <trkpt lat="44.45906" lon="1.02286">
        <ele>190</ele>
        <time>2014-01-18T14:12:03Z</time>
      </trkpt>
      <trkpt lat="44.45905" lon="1.023">
        <ele>189</ele>
        <time>2014-01-18T14:12:04Z</time>
      </trkpt>
      <trkpt lat="44.45901" lon="1.02349">
        <ele>187</ele>
        <time>2014-01-18T14:12:08Z</time>
      </trkpt>
      <trkpt lat="44.45902" lon="1.02358">
        <ele>186</ele>
        <time>2014-01-18T14:12:09Z</time>
      </trkpt>
      <trkpt lat="44.45903" lon="1.02365">
        <ele>186</ele>
        <time>2014-01-18T14:12:10Z</time>
      </trkpt>
      <trkpt lat="44.45905" lon="1.02371">
        <ele>186</ele>
        <time>2014-01-18T14:12:11Z</time>
      </trkpt>
      <trkpt lat="44.45906" lon="1.02375">
        <ele>186</ele>
        <time>2014-01-18T14:12:12Z</time>
      </trkpt>
      <trkpt lat="44.45908" lon="1.02379">
        <ele>185</ele>
        <time>2014-01-18T14:12:22Z</time>
      </trkpt>
      <trkpt lat="44.45907" lon="1.02378">
        <ele>184</ele>
        <time>2014-01-18T14:12:40Z</time>
      </trkpt>
      <trkpt lat="44.45909" lon="1.02378">
        <ele>184</ele>
        <time>2014-01-18T14:13:02Z</time>
      </trkpt>
      <trkpt lat="44.4591" lon="1.02381">
        <ele>184</ele>
        <time>2014-01-18T14:13:23Z</time>
      </trkpt>
      <trkpt lat="44.4591" lon="1.02384">
        <ele>184</ele>
        <time>2014-01-18T14:13:24Z</time>
      </trkpt>
      <trkpt lat="44.4591" lon="1.02388">
        <ele>184</ele>
        <time>2014-01-18T14:13:25Z</time>
      </trkpt>
      <trkpt lat="44.45911" lon="1.02393">
        <ele>183</ele>
        <time>2014-01-18T14:13:26Z</time>
      </trkpt>
      <trkpt lat="44.45913" lon="1.02397">
        <ele>184</ele>
        <time>2014-01-18T14:13:27Z</time>
      </trkpt>
      <trkpt lat="44.4594" lon="1.02438">
        <ele>187</ele>
        <time>2014-01-18T14:13:39Z</time>
      </trkpt>
      <trkpt lat="44.45973" lon="1.02477">
        <ele>191</ele>
        <time>2014-01-18T14:13:51Z</time>
      </trkpt>
      <trkpt lat="44.4601" lon="1.02516">
        <ele>198</ele>
        <time>2014-01-18T14:14:04Z</time>
      </trkpt>
      <trkpt lat="44.46044" lon="1.02568">
        <ele>203</ele>
        <time>2014-01-18T14:14:18Z</time>
      </trkpt>
      <trkpt lat="44.46068" lon="1.02616">
        <ele>206</ele>
        <time>2014-01-18T14:14:30Z</time>
      </trkpt>
      <trkpt lat="44.46103" lon="1.02674">
        <ele>206</ele>
        <time>2014-01-18T14:14:47Z</time>
      </trkpt>
      <trkpt lat="44.46135" lon="1.02708">
        <ele>205</ele>
        <time>2014-01-18T14:14:59Z</time>
      </trkpt>
      <trkpt lat="44.46172" lon="1.02755">
        <ele>202</ele>
        <time>2014-01-18T14:15:10Z</time>
      </trkpt>
      <trkpt lat="44.46203" lon="1.02808">
        <ele>203</ele>
        <time>2014-01-18T14:15:19Z</time>
      </trkpt>
      <trkpt lat="44.46234" lon="1.0286">
        <ele>207</ele>
        <time>2014-01-18T14:15:32Z</time>
      </trkpt>
      <trkpt lat="44.4626" lon="1.02911">
        <ele>212</ele>
        <time>2014-01-18T14:15:45Z</time>
      </trkpt>
      <trkpt lat="44.46281" lon="1.02964">
        <ele>216</ele>
        <time>2014-01-18T14:15:58Z</time>
      </trkpt>
      <trkpt lat="44.46305" lon="1.03016">
        <ele>218</ele>
        <time>2014-01-18T14:16:11Z</time>
      </trkpt>
      <trkpt lat="44.46342" lon="1.03075">
        <ele>219</ele>
        <time>2014-01-18T14:16:27Z</time>
      </trkpt>
      <trkpt lat="44.46376" lon="1.03125">
        <ele>220</ele>
        <time>2014-01-18T14:16:42Z</time>
      </trkpt>
      <trkpt lat="44.46411" lon="1.03176">
        <ele>220</ele>
        <time>2014-01-18T14:16:57Z</time>
      </trkpt>
      <trkpt lat="44.46437" lon="1.03221">
        <ele>220</ele>
        <time>2014-01-18T14:17:09Z</time>
      </trkpt>
      <trkpt lat="44.46468" lon="1.03281">
        <ele>218</ele>
        <time>2014-01-18T14:17:23Z</time>
      </trkpt>
      <trkpt lat="44.46477" lon="1.03297">
        <ele>217</ele>
        <time>2014-01-18T14:17:26Z</time>
      </trkpt>
      <trkpt lat="44.46479" lon="1.03303">
        <ele>217</ele>
        <time>2014-01-18T14:17:27Z</time>
      </trkpt>
      <trkpt lat="44.46513" lon="1.03368">
        <ele>217</ele>
        <time>2014-01-18T14:17:41Z</time>
      </trkpt>
      <trkpt lat="44.46522" lon="1.03382">
        <ele>218</ele>
        <time>2014-01-18T14:17:47Z</time>
      </trkpt>
      <trkpt lat="44.46524" lon="1.03382">
        <ele>218</ele>
        <time>2014-01-18T14:18:00Z</time>
      </trkpt>
      <trkpt lat="44.46524" lon="1.03382">
        <ele>220</ele>
        <time>2014-01-18T14:18:20Z</time>
      </trkpt>
      <trkpt lat="44.46524" lon="1.03382">
        <ele>219</ele>
        <time>2014-01-18T14:18:41Z</time>
      </trkpt>
      <trkpt lat="44.46524" lon="1.03382">
        <ele>219</ele>
        <time>2014-01-18T14:19:08Z</time>
      </trkpt>
      <trkpt lat="44.46525" lon="1.03383">
        <ele>219</ele>
        <time>2014-01-18T14:19:37Z</time>
      </trkpt>
      <trkpt lat="44.46525" lon="1.03382">
        <ele>219</ele>
        <time>2014-01-18T14:20:00Z</time>
      </trkpt>
      <trkpt lat="44.46526" lon="1.03381">
        <ele>219</ele>
        <time>2014-01-18T14:20:02Z</time>
      </trkpt>
      <trkpt lat="44.46528" lon="1.0338">
        <ele>219</ele>
        <time>2014-01-18T14:20:03Z</time>
      </trkpt>
      <trkpt lat="44.4653" lon="1.0338">
        <ele>219</ele>
        <time>2014-01-18T14:20:04Z</time>
      </trkpt>
      <trkpt lat="44.46554" lon="1.0336">
        <ele>218</ele>
        <time>2014-01-18T14:20:12Z</time>
      </trkpt>
      <trkpt lat="44.46557" lon="1.03357">
        <ele>218</ele>
        <time>2014-01-18T14:20:13Z</time>
      </trkpt>
      <trkpt lat="44.46569" lon="1.03348">
        <ele>216</ele>
        <time>2014-01-18T14:20:21Z</time>
      </trkpt>
      <trkpt lat="44.46568" lon="1.0335">
        <ele>216</ele>
        <time>2014-01-18T14:20:25Z</time>
      </trkpt>
      <trkpt lat="44.46542" lon="1.0337">
        <ele>217</ele>
        <time>2014-01-18T14:20:37Z</time>
      </trkpt>
      <trkpt lat="44.46524" lon="1.03379">
        <ele>218</ele>
        <time>2014-01-18T14:20:46Z</time>
      </trkpt>
      <trkpt lat="44.46521" lon="1.0338">
        <ele>218</ele>
        <time>2014-01-18T14:20:49Z</time>
      </trkpt>
      <trkpt lat="44.46519" lon="1.03379">
        <ele>219</ele>
        <time>2014-01-18T14:20:50Z</time>
      </trkpt>
      <trkpt lat="44.46518" lon="1.03378">
        <ele>219</ele>
        <time>2014-01-18T14:20:51Z</time>
      </trkpt>
      <trkpt lat="44.46517" lon="1.03377">
        <ele>219</ele>
        <time>2014-01-18T14:20:52Z</time>
      </trkpt>
      <trkpt lat="44.46517" lon="1.03375">
        <ele>219</ele>
        <time>2014-01-18T14:20:53Z</time>
      </trkpt>
      <trkpt lat="44.46516" lon="1.03372">
        <ele>219</ele>
        <time>2014-01-18T14:20:54Z</time>
      </trkpt>
      <trkpt lat="44.46492" lon="1.03322">
        <ele>219</ele>
        <time>2014-01-18T14:21:06Z</time>
      </trkpt>
      <trkpt lat="44.4649" lon="1.03318">
        <ele>219</ele>
        <time>2014-01-18T14:21:07Z</time>
      </trkpt>
      <trkpt lat="44.46488" lon="1.03313">
        <ele>219</ele>
        <time>2014-01-18T14:21:08Z</time>
      </trkpt>
      <trkpt lat="44.46446" lon="1.03232">
        <ele>220</ele>
        <time>2014-01-18T14:21:24Z</time>
      </trkpt>
      <trkpt lat="44.46445" lon="1.03226">
        <ele>221</ele>
        <time>2014-01-18T14:21:25Z</time>
      </trkpt>
      <trkpt lat="44.46447" lon="1.03221">
        <ele>221</ele>
        <time>2014-01-18T14:21:26Z</time>
      </trkpt>
      <trkpt lat="44.4645" lon="1.03217">
        <ele>221</ele>
        <time>2014-01-18T14:21:27Z</time>
      </trkpt>
      <trkpt lat="44.46454" lon="1.03214">
        <ele>221</ele>
        <time>2014-01-18T14:21:28Z</time>
      </trkpt>
      <trkpt lat="44.46457" lon="1.03212">
        <ele>221</ele>
        <time>2014-01-18T14:21:29Z</time>
      </trkpt>
      <trkpt lat="44.46461" lon="1.03209">
        <ele>221</ele>
        <time>2014-01-18T14:21:30Z</time>
      </trkpt>
      <trkpt lat="44.46465" lon="1.03206">
        <ele>221</ele>
        <time>2014-01-18T14:21:31Z</time>
      </trkpt>
      <trkpt lat="44.46483" lon="1.03194">
        <ele>220</ele>
        <time>2014-01-18T14:21:35Z</time>
      </trkpt>
      <trkpt lat="44.46487" lon="1.0319">
        <ele>220</ele>
        <time>2014-01-18T14:21:36Z</time>
      </trkpt>
      <trkpt lat="44.4649" lon="1.03184">
        <ele>220</ele>
        <time>2014-01-18T14:21:37Z</time>
      </trkpt>
      <trkpt lat="44.46492" lon="1.03176">
        <ele>220</ele>
        <time>2014-01-18T14:21:38Z</time>
      </trkpt>
      <trkpt lat="44.46493" lon="1.03169">
        <ele>220</ele>
        <time>2014-01-18T14:21:39Z</time>
      </trkpt>
      <trkpt lat="44.46493" lon="1.03161">
        <ele>219</ele>
        <time>2014-01-18T14:21:40Z</time>
      </trkpt>
      <trkpt lat="44.46494" lon="1.03154">
        <ele>219</ele>
        <time>2014-01-18T14:21:41Z</time>
      </trkpt>
      <trkpt lat="44.46494" lon="1.03147">
        <ele>219</ele>
        <time>2014-01-18T14:21:42Z</time>
      </trkpt>
      <trkpt lat="44.46494" lon="1.03134">
        <ele>219</ele>
        <time>2014-01-18T14:21:44Z</time>
      </trkpt>
      <trkpt lat="44.46509" lon="1.03029">
        <ele>215</ele>
        <time>2014-01-18T14:21:58Z</time>
      </trkpt>
      <trkpt lat="44.46514" lon="1.02995">
        <ele>215</ele>
        <time>2014-01-18T14:22:07Z</time>
      </trkpt>
      <trkpt lat="44.4652" lon="1.02973">
        <ele>215</ele>
        <time>2014-01-18T14:22:19Z</time>
      </trkpt>
      <trkpt lat="44.46522" lon="1.02964">
        <ele>215</ele>
        <time>2014-01-18T14:22:44Z</time>
      </trkpt>
      <trkpt lat="44.46524" lon="1.02959">
        <ele>215</ele>
        <time>2014-01-18T14:22:45Z</time>
      </trkpt>
      <trkpt lat="44.46529" lon="1.02949">
        <ele>214</ele>
        <time>2014-01-18T14:22:47Z</time>
      </trkpt>
      <trkpt lat="44.46573" lon="1.02868">
        <ele>210</ele>
        <time>2014-01-18T14:22:58Z</time>
      </trkpt>
      <trkpt lat="44.46597" lon="1.02822">
        <ele>208</ele>
        <time>2014-01-18T14:23:03Z</time>
      </trkpt>
      <trkpt lat="44.46618" lon="1.02791">
        <ele>206</ele>
        <time>2014-01-18T14:23:07Z</time>
      </trkpt>
      <trkpt lat="44.4668" lon="1.0268">
        <ele>202</ele>
        <time>2014-01-18T14:23:20Z</time>
      </trkpt>
      <trkpt lat="44.46714" lon="1.02616">
        <ele>200</ele>
        <time>2014-01-18T14:23:28Z</time>
      </trkpt>
      <trkpt lat="44.46742" lon="1.02604">
        <ele>198</ele>
        <time>2014-01-18T14:23:34Z</time>
      </trkpt>
      <trkpt lat="44.46747" lon="1.02601">
        <ele>198</ele>
        <time>2014-01-18T14:23:35Z</time>
      </trkpt>
      <trkpt lat="44.46751" lon="1.02596">
        <ele>197</ele>
        <time>2014-01-18T14:23:36Z</time>
      </trkpt>
      <trkpt lat="44.46754" lon="1.02591">
        <ele>197</ele>
        <time>2014-01-18T14:23:37Z</time>
      </trkpt>
      <trkpt lat="44.46756" lon="1.02585">
        <ele>197</ele>
        <time>2014-01-18T14:23:38Z</time>
      </trkpt>
      <trkpt lat="44.4676" lon="1.02576">
        <ele>196</ele>
        <time>2014-01-18T14:23:40Z</time>
      </trkpt>
      <trkpt lat="44.46759" lon="1.02572">
        <ele>196</ele>
        <time>2014-01-18T14:23:52Z</time>
      </trkpt>
      <trkpt lat="44.46759" lon="1.02571">
        <ele>197</ele>
        <time>2014-01-18T14:24:11Z</time>
      </trkpt>
      <trkpt lat="44.46755" lon="1.02563">
        <ele>196</ele>
        <time>2014-01-18T14:24:16Z</time>
      </trkpt>
      <trkpt lat="44.46753" lon="1.0256">
        <ele>196</ele>
        <time>2014-01-18T14:24:18Z</time>
      </trkpt>
      <trkpt lat="44.46749" lon="1.02552">
        <ele>195</ele>
        <time>2014-01-18T14:24:22Z</time>
      </trkpt>
      <trkpt lat="44.46742" lon="1.02536">
        <ele>193</ele>
        <time>2014-01-18T14:24:30Z</time>
      </trkpt>
      <trkpt lat="44.46735" lon="1.02504">
        <ele>190</ele>
        <time>2014-01-18T14:24:37Z</time>
      </trkpt>
      <trkpt lat="44.46726" lon="1.0249">
        <ele>187</ele>
        <time>2014-01-18T14:24:42Z</time>
      </trkpt>
      <trkpt lat="44.46718" lon="1.02488">
        <ele>186</ele>
        <time>2014-01-18T14:24:44Z</time>
      </trkpt>
      <trkpt lat="44.46706" lon="1.02485">
        <ele>183</ele>
        <time>2014-01-18T14:24:47Z</time>
      </trkpt>
      <trkpt lat="44.46686" lon="1.02487">
        <ele>179</ele>
        <time>2014-01-18T14:24:52Z</time>
      </trkpt>
      <trkpt lat="44.46681" lon="1.02477">
        <ele>176</ele>
        <time>2014-01-18T14:24:56Z</time>
      </trkpt>
      <trkpt lat="44.46669" lon="1.0246">
        <ele>170</ele>
        <time>2014-01-18T14:25:02Z</time>
      </trkpt>
      <trkpt lat="44.46646" lon="1.0245">
        <ele>166</ele>
        <time>2014-01-18T14:25:11Z</time>
      </trkpt>
      <trkpt lat="44.46642" lon="1.0244">
        <ele>165</ele>
        <time>2014-01-18T14:25:19Z</time>
      </trkpt>
      <trkpt lat="44.46642" lon="1.02439">
        <ele>165</ele>
        <time>2014-01-18T14:25:50Z</time>
      </trkpt>
      <trkpt lat="44.46642" lon="1.0244">
        <ele>165</ele>
        <time>2014-01-18T14:26:20Z</time>
      </trkpt>
      <trkpt lat="44.46641" lon="1.0244">
        <ele>165</ele>
        <time>2014-01-18T14:26:37Z</time>
      </trkpt>
      <trkpt lat="44.46647" lon="1.02401">
        <ele>165</ele>
        <time>2014-01-18T14:26:45Z</time>
      </trkpt>
      <trkpt lat="44.4665" lon="1.02388">
        <ele>164</ele>
        <time>2014-01-18T14:26:47Z</time>
      </trkpt>
      <trkpt lat="44.46659" lon="1.02368">
        <ele>163</ele>
        <time>2014-01-18T14:26:50Z</time>
      </trkpt>
      <trkpt lat="44.46676" lon="1.02341">
        <ele>161</ele>
        <time>2014-01-18T14:26:55Z</time>
      </trkpt>
      <trkpt lat="44.46682" lon="1.02318">
        <ele>160</ele>
        <time>2014-01-18T14:26:58Z</time>
      </trkpt>
      <trkpt lat="44.46697" lon="1.02285">
        <ele>158</ele>
        <time>2014-01-18T14:27:03Z</time>
      </trkpt>
      <trkpt lat="44.46707" lon="1.02268">
        <ele>157</ele>
        <time>2014-01-18T14:27:06Z</time>
      </trkpt>
      <trkpt lat="44.46723" lon="1.02233">
        <ele>154</ele>
        <time>2014-01-18T14:27:11Z</time>
      </trkpt>
      <trkpt lat="44.4673" lon="1.02207">
        <ele>153</ele>
        <time>2014-01-18T14:27:14Z</time>
      </trkpt>
      <trkpt lat="44.46746" lon="1.02112">
        <ele>146</ele>
        <time>2014-01-18T14:27:26Z</time>
      </trkpt>
      <trkpt lat="44.46747" lon="1.02068">
        <ele>142</ele>
        <time>2014-01-18T14:27:32Z</time>
      </trkpt>
      <trkpt lat="44.46747" lon="1.02031">
        <ele>139</ele>
        <time>2014-01-18T14:27:37Z</time>
      </trkpt>
      <trkpt lat="44.46753" lon="1.01978">
        <ele>135</ele>
        <time>2014-01-18T14:27:45Z</time>
      </trkpt>
      <trkpt lat="44.46761" lon="1.01935">
        <ele>133</ele>
        <time>2014-01-18T14:27:51Z</time>
      </trkpt>
      <trkpt lat="44.46773" lon="1.01898">
        <ele>131</ele>
        <time>2014-01-18T14:27:57Z</time>
      </trkpt>
      <trkpt lat="44.46783" lon="1.01871">
        <ele>128</ele>
        <time>2014-01-18T14:28:02Z</time>
      </trkpt>
      <trkpt lat="44.46813" lon="1.01797">
        <ele>123</ele>
        <time>2014-01-18T14:28:16Z</time>
      </trkpt>
      <trkpt lat="44.46807" lon="1.01774">
        <ele>121</ele>
        <time>2014-01-18T14:28:23Z</time>
      </trkpt>
      <trkpt lat="44.46772" lon="1.01773">
        <ele>118</ele>
        <time>2014-01-18T14:28:35Z</time>
      </trkpt>
      <trkpt lat="44.46735" lon="1.01785">
        <ele>118</ele>
        <time>2014-01-18T14:28:46Z</time>
      </trkpt>
      <trkpt lat="44.46733" lon="1.01783">
        <ele>119</ele>
        <time>2014-01-18T14:28:47Z</time>
      </trkpt>
      <trkpt lat="44.46733" lon="1.0178">
        <ele>119</ele>
        <time>2014-01-18T14:28:48Z</time>
      </trkpt>
      <trkpt lat="44.46734" lon="1.01768">
        <ele>120</ele>
        <time>2014-01-18T14:28:57Z</time>
      </trkpt>
      <trkpt lat="44.46732" lon="1.01767">
        <ele>122</ele>
        <time>2014-01-18T14:29:13Z</time>
      </trkpt>
      <trkpt lat="44.46731" lon="1.01763">
        <ele>121</ele>
        <time>2014-01-18T14:29:15Z</time>
      </trkpt>
      <trkpt lat="44.46753" lon="1.01738">
        <ele>125</ele>
        <time>2014-01-18T14:29:27Z</time>
      </trkpt>
      <trkpt lat="44.46779" lon="1.01711">
        <ele>127</ele>
        <time>2014-01-18T14:29:37Z</time>
      </trkpt>
      <trkpt lat="44.46816" lon="1.01662">
        <ele>128</ele>
        <time>2014-01-18T14:29:50Z</time>
      </trkpt>
      <trkpt lat="44.46841" lon="1.01621">
        <ele>131</ele>
        <time>2014-01-18T14:30:02Z</time>
      </trkpt>
      <trkpt lat="44.46864" lon="1.01586">
        <ele>135</ele>
        <time>2014-01-18T14:30:14Z</time>
      </trkpt>
      <trkpt lat="44.46882" lon="1.01553">
        <ele>135</ele>
        <time>2014-01-18T14:30:24Z</time>
      </trkpt>
      <trkpt lat="44.46901" lon="1.0151">
        <ele>137</ele>
        <time>2014-01-18T14:30:35Z</time>
      </trkpt>
      <trkpt lat="44.46931" lon="1.01462">
        <ele>139</ele>
        <time>2014-01-18T14:30:50Z</time>
      </trkpt>
      <trkpt lat="44.46957" lon="1.01412">
        <ele>138</ele>
        <time>2014-01-18T14:31:02Z</time>
      </trkpt>
      <trkpt lat="44.46982" lon="1.01348">
        <ele>138</ele>
        <time>2014-01-18T14:31:16Z</time>
      </trkpt>
      <trkpt lat="44.47007" lon="1.01284">
        <ele>135</ele>
        <time>2014-01-18T14:31:30Z</time>
      </trkpt>
      <trkpt lat="44.47025" lon="1.01226">
        <ele>133</ele>
        <time>2014-01-18T14:31:43Z</time>
      </trkpt>
      <trkpt lat="44.47026" lon="1.01221">
        <ele>130</ele>
        <time>2014-01-18T14:31:57Z</time>
      </trkpt>
      <trkpt lat="44.47026" lon="1.0122">
        <ele>129</ele>
        <time>2014-01-18T14:32:19Z</time>
      </trkpt>
      <trkpt lat="44.47026" lon="1.0122">
        <ele>129</ele>
        <time>2014-01-18T14:32:35Z</time>
      </trkpt>
      <trkpt lat="44.47026" lon="1.01221">
        <ele>129</ele>
        <time>2014-01-18T14:32:56Z</time>
      </trkpt>
      <trkpt lat="44.47028" lon="1.01221">
        <ele>129</ele>
        <time>2014-01-18T14:33:10Z</time>
      </trkpt>
      <trkpt lat="44.47062" lon="1.01209">
        <ele>127</ele>
        <time>2014-01-18T14:33:20Z</time>
      </trkpt>
      <trkpt lat="44.47085" lon="1.01206">
        <ele>125</ele>
        <time>2014-01-18T14:33:25Z</time>
      </trkpt>
      <trkpt lat="44.47088" lon="1.01209">
        <ele>124</ele>
        <time>2014-01-18T14:33:26Z</time>
      </trkpt>
      <trkpt lat="44.47091" lon="1.01213">
        <ele>124</ele>
        <time>2014-01-18T14:33:27Z</time>
      </trkpt>
      <trkpt lat="44.4711" lon="1.0123">
        <ele>124</ele>
        <time>2014-01-18T14:33:34Z</time>
      </trkpt>
      <trkpt lat="44.47163" lon="1.0125">
        <ele>119</ele>
        <time>2014-01-18T14:33:44Z</time>
      </trkpt>
      <trkpt lat="44.47203" lon="1.01255">
        <ele>114</ele>
        <time>2014-01-18T14:33:52Z</time>
      </trkpt>
      <trkpt lat="44.47248" lon="1.01281">
        <ele>102</ele>
        <time>2014-01-18T14:34:04Z</time>
      </trkpt>
      <trkpt lat="44.47254" lon="1.01281">
        <ele>101</ele>
        <time>2014-01-18T14:34:06Z</time>
      </trkpt>
      <trkpt lat="44.47283" lon="1.01305">
        <ele>95</ele>
        <time>2014-01-18T14:34:15Z</time>
      </trkpt>
      <trkpt lat="44.47309" lon="1.01325">
        <ele>95</ele>
        <time>2014-01-18T14:34:24Z</time>
      </trkpt>
      <trkpt lat="44.47325" lon="1.01344">
        <ele>99</ele>
        <time>2014-01-18T14:34:34Z</time>
      </trkpt>
      <trkpt lat="44.47331" lon="1.01364">
        <ele>103</ele>
        <time>2014-01-18T14:34:44Z</time>
      </trkpt>
      <trkpt lat="44.47337" lon="1.01394">
        <ele>106</ele>
        <time>2014-01-18T14:34:56Z</time>
      </trkpt>
      <trkpt lat="44.47342" lon="1.01406">
        <ele>107</ele>
        <time>2014-01-18T14:35:03Z</time>
      </trkpt>
      <trkpt lat="44.47349" lon="1.0143">
        <ele>113</ele>
        <time>2014-01-18T14:35:19Z</time>
      </trkpt>
      <trkpt lat="44.47352" lon="1.01448">
        <ele>118</ele>
        <time>2014-01-18T14:35:33Z</time>
      </trkpt>
      <trkpt lat="44.47357" lon="1.01465">
        <ele>123</ele>
        <time>2014-01-18T14:35:49Z</time>
      </trkpt>
      <trkpt lat="44.47357" lon="1.01467">
        <ele>124</ele>
        <time>2014-01-18T14:35:50Z</time>
      </trkpt>
      <trkpt lat="44.47365" lon="1.01476">
        <ele>124</ele>
        <time>2014-01-18T14:35:58Z</time>
      </trkpt>
      <trkpt lat="44.47367" lon="1.01477">
        <ele>124</ele>
        <time>2014-01-18T14:36:00Z</time>
      </trkpt>
      <trkpt lat="44.47385" lon="1.0149">
        <ele>125</ele>
        <time>2014-01-18T14:36:15Z</time>
      </trkpt>
      <trkpt lat="44.47398" lon="1.01506">
        <ele>125</ele>
        <time>2014-01-18T14:36:28Z</time>
      </trkpt>
      <trkpt lat="44.47416" lon="1.01534">
        <ele>125</ele>
        <time>2014-01-18T14:36:46Z</time>
      </trkpt>
      <trkpt lat="44.47421" lon="1.01539">
        <ele>125</ele>
        <time>2014-01-18T14:36:51Z</time>
      </trkpt>
      <trkpt lat="44.47442" lon="1.01561">
        <ele>127</ele>
        <time>2014-01-18T14:37:10Z</time>
      </trkpt>
      <trkpt lat="44.4746" lon="1.01581">
        <ele>129</ele>
        <time>2014-01-18T14:37:27Z</time>
      </trkpt>
      <trkpt lat="44.47484" lon="1.01592">
        <ele>132</ele>
        <time>2014-01-18T14:37:44Z</time>
      </trkpt>
      <trkpt lat="44.47498" lon="1.01611">
        <ele>134</ele>
        <time>2014-01-18T14:37:59Z</time>
      </trkpt>
      <trkpt lat="44.475" lon="1.01609">
        <ele>134</ele>
        <time>2014-01-18T14:38:11Z</time>
      </trkpt>
      <trkpt lat="44.47514" lon="1.01629">
        <ele>135</ele>
        <time>2014-01-18T14:38:22Z</time>
      </trkpt>
      <trkpt lat="44.47537" lon="1.0165">
        <ele>135</ele>
        <time>2014-01-18T14:38:33Z</time>
      </trkpt>
      <trkpt lat="44.47538" lon="1.0165">
        <ele>136</ele>
        <time>2014-01-18T14:38:46Z</time>
      </trkpt>
      <trkpt lat="44.47538" lon="1.01649">
        <ele>136</ele>
        <time>2014-01-18T14:39:04Z</time>
      </trkpt>
      <trkpt lat="44.47538" lon="1.01649">
        <ele>136</ele>
        <time>2014-01-18T14:39:26Z</time>
      </trkpt>
      <trkpt lat="44.47537" lon="1.0165">
        <ele>136</ele>
        <time>2014-01-18T14:39:56Z</time>
      </trkpt>
      <trkpt lat="44.47537" lon="1.0165">
        <ele>136</ele>
        <time>2014-01-18T14:40:19Z</time>
      </trkpt>
      <trkpt lat="44.47538" lon="1.0165">
        <ele>137</ele>
        <time>2014-01-18T14:40:47Z</time>
      </trkpt>
      <trkpt lat="44.47537" lon="1.0165">
        <ele>136</ele>
        <time>2014-01-18T14:41:02Z</time>
      </trkpt>
      <trkpt lat="44.47537" lon="1.0165">
        <ele>136</ele>
        <time>2014-01-18T14:41:18Z</time>
      </trkpt>
      <trkpt lat="44.47538" lon="1.01649">
        <ele>136</ele>
        <time>2014-01-18T14:41:38Z</time>
      </trkpt>
      <trkpt lat="44.47538" lon="1.01649">
        <ele>136</ele>
        <time>2014-01-18T14:42:01Z</time>
      </trkpt>
      <trkpt lat="44.47538" lon="1.01649">
        <ele>137</ele>
        <time>2014-01-18T14:42:23Z</time>
      </trkpt>
      <trkpt lat="44.47538" lon="1.01649">
        <ele>137</ele>
        <time>2014-01-18T14:42:42Z</time>
      </trkpt>
      <trkpt lat="44.47538" lon="1.01649">
        <ele>138</ele>
        <time>2014-01-18T14:43:04Z</time>
      </trkpt>
      <trkpt lat="44.47539" lon="1.0165">
        <ele>138</ele>
        <time>2014-01-18T14:43:30Z</time>
      </trkpt>
      <trkpt lat="44.47539" lon="1.0165">
        <ele>138</ele>
        <time>2014-01-18T14:43:44Z</time>
      </trkpt>
      <trkpt lat="44.47541" lon="1.01648">
        <ele>137</ele>
        <time>2014-01-18T14:43:46Z</time>
      </trkpt>
      <trkpt lat="44.47542" lon="1.01644">
        <ele>137</ele>
        <time>2014-01-18T14:43:48Z</time>
      </trkpt>
      <trkpt lat="44.47552" lon="1.01611">
        <ele>137</ele>
        <time>2014-01-18T14:43:58Z</time>
      </trkpt>
      <trkpt lat="44.47559" lon="1.01582">
        <ele>142</ele>
        <time>2014-01-18T14:44:10Z</time>
      </trkpt>
      <trkpt lat="44.47561" lon="1.01569">
        <ele>143</ele>
        <time>2014-01-18T14:44:18Z</time>
      </trkpt>
      <trkpt lat="44.47562" lon="1.01566">
        <ele>143</ele>
        <time>2014-01-18T14:44:19Z</time>
      </trkpt>
      <trkpt lat="44.47562" lon="1.01564">
        <ele>143</ele>
        <time>2014-01-18T14:44:20Z</time>
      </trkpt>
      <trkpt lat="44.47563" lon="1.01561">
        <ele>143</ele>
        <time>2014-01-18T14:44:21Z</time>
      </trkpt>
      <trkpt lat="44.47563" lon="1.01558">
        <ele>143</ele>
        <time>2014-01-18T14:44:22Z</time>
      </trkpt>
      <trkpt lat="44.47563" lon="1.01555">
        <ele>143</ele>
        <time>2014-01-18T14:44:23Z</time>
      </trkpt>
      <trkpt lat="44.47563" lon="1.01552">
        <ele>143</ele>
        <time>2014-01-18T14:44:24Z</time>
      </trkpt>
      <trkpt lat="44.47563" lon="1.01523">
        <ele>147</ele>
        <time>2014-01-18T14:44:40Z</time>
      </trkpt>
      <trkpt lat="44.47572" lon="1.01492">
        <ele>148</ele>
        <time>2014-01-18T14:44:51Z</time>
      </trkpt>
      <trkpt lat="44.47592" lon="1.01438">
        <ele>147</ele>
        <time>2014-01-18T14:45:06Z</time>
      </trkpt>
      <trkpt lat="44.47618" lon="1.01371">
        <ele>145</ele>
        <time>2014-01-18T14:45:21Z</time>
      </trkpt>
      <trkpt lat="44.4762" lon="1.01365">
        <ele>144</ele>
        <time>2014-01-18T14:45:22Z</time>
      </trkpt>
      <trkpt lat="44.47622" lon="1.0136">
        <ele>144</ele>
        <time>2014-01-18T14:45:23Z</time>
      </trkpt>
      <trkpt lat="44.47629" lon="1.01337">
        <ele>142</ele>
        <time>2014-01-18T14:45:27Z</time>
      </trkpt>
      <trkpt lat="44.47661" lon="1.01298">
        <ele>136</ele>
        <time>2014-01-18T14:45:35Z</time>
      </trkpt>
      <trkpt lat="44.47694" lon="1.01239">
        <ele>128</ele>
        <time>2014-01-18T14:45:43Z</time>
      </trkpt>
      <trkpt lat="44.47701" lon="1.01233">
        <ele>127</ele>
        <time>2014-01-18T14:45:50Z</time>
      </trkpt>
      <trkpt lat="44.4771" lon="1.01216">
        <ele>126</ele>
        <time>2014-01-18T14:46:01Z</time>
      </trkpt>
      <trkpt lat="44.4771" lon="1.01216">
        <ele>127</ele>
        <time>2014-01-18T14:46:20Z</time>
      </trkpt>
      <trkpt lat="44.47706" lon="1.01217">
        <ele>128</ele>
        <time>2014-01-18T14:46:32Z</time>
      </trkpt>
      <trkpt lat="44.47707" lon="1.01217">
        <ele>128</ele>
        <time>2014-01-18T14:46:47Z</time>
      </trkpt>
      <trkpt lat="44.47707" lon="1.01218">
        <ele>127</ele>
        <time>2014-01-18T14:47:07Z</time>
      </trkpt>
      <trkpt lat="44.47708" lon="1.01218">
        <ele>128</ele>
        <time>2014-01-18T14:47:23Z</time>
      </trkpt>
      <trkpt lat="44.47707" lon="1.01218">
        <ele>128</ele>
        <time>2014-01-18T14:47:36Z</time>
      </trkpt>
      <trkpt lat="44.47707" lon="1.01218">
        <ele>128</ele>
        <time>2014-01-18T14:47:38Z</time>
      </trkpt>
      <trkpt lat="44.47723" lon="1.01188">
        <ele>127</ele>
        <time>2014-01-18T14:47:49Z</time>
      </trkpt>
      <trkpt lat="44.47743" lon="1.0116">
        <ele>124</ele>
        <time>2014-01-18T14:48:00Z</time>
      </trkpt>
      <trkpt lat="44.47759" lon="1.01137">
        <ele>121</ele>
        <time>2014-01-18T14:48:10Z</time>
      </trkpt>
      <trkpt lat="44.47771" lon="1.01121">
        <ele>118</ele>
        <time>2014-01-18T14:48:20Z</time>
      </trkpt>
      <trkpt lat="44.47771" lon="1.01117">
        <ele>118</ele>
        <time>2014-01-18T14:48:32Z</time>
      </trkpt>
      <trkpt lat="44.47774" lon="1.01111">
        <ele>117</ele>
        <time>2014-01-18T14:48:45Z</time>
      </trkpt>
      <trkpt lat="44.47774" lon="1.01109">
        <ele>117</ele>
        <time>2014-01-18T14:48:46Z</time>
      </trkpt>
      <trkpt lat="44.47787" lon="1.01091">
        <ele>116</ele>
        <time>2014-01-18T14:48:53Z</time>
      </trkpt>
      <trkpt lat="44.47792" lon="1.0108">
        <ele>115</ele>
        <time>2014-01-18T14:48:55Z</time>
      </trkpt>
      <trkpt lat="44.47815" lon="1.01041">
        <ele>113</ele>
        <time>2014-01-18T14:49:03Z</time>
      </trkpt>
      <trkpt lat="44.47833" lon="1.01006">
        <ele>111</ele>
        <time>2014-01-18T14:49:15Z</time>
      </trkpt>
      <trkpt lat="44.47835" lon="1.01001">
        <ele>111</ele>
        <time>2014-01-18T14:49:24Z</time>
      </trkpt>
      <trkpt lat="44.47837" lon="1.00999">
        <ele>111</ele>
        <time>2014-01-18T14:49:37Z</time>
      </trkpt>
      <trkpt lat="44.47846" lon="1.00982">
        <ele>110</ele>
        <time>2014-01-18T14:49:46Z</time>
      </trkpt>
      <trkpt lat="44.4785" lon="1.00973">
        <ele>109</ele>
        <time>2014-01-18T14:49:49Z</time>
      </trkpt>
      <trkpt lat="44.4786" lon="1.0095">
        <ele>107</ele>
        <time>2014-01-18T14:49:56Z</time>
      </trkpt>
      <trkpt lat="44.47861" lon="1.00943">
        <ele>107</ele>
        <time>2014-01-18T14:49:58Z</time>
      </trkpt>
      <trkpt lat="44.47871" lon="1.00925">
        <ele>105</ele>
        <time>2014-01-18T14:50:04Z</time>
      </trkpt>
      <trkpt lat="44.47892" lon="1.00888">
        <ele>101</ele>
        <time>2014-01-18T14:50:16Z</time>
      </trkpt>
      <trkpt lat="44.47907" lon="1.00858">
        <ele>98</ele>
        <time>2014-01-18T14:50:26Z</time>
      </trkpt>
      <trkpt lat="44.47919" lon="1.00832">
        <ele>93</ele>
        <time>2014-01-18T14:50:37Z</time>
      </trkpt>
      <trkpt lat="44.47921" lon="1.00831">
        <ele>93</ele>
        <time>2014-01-18T14:50:50Z</time>
      </trkpt>
      <trkpt lat="44.47923" lon="1.00827">
        <ele>92</ele>
        <time>2014-01-18T14:51:06Z</time>
      </trkpt>
      <trkpt lat="44.47921" lon="1.00825">
        <ele>92</ele>
        <time>2014-01-18T14:51:25Z</time>
      </trkpt>
      <trkpt lat="44.47922" lon="1.00819">
        <ele>90</ele>
        <time>2014-01-18T14:51:34Z</time>
      </trkpt>
      <trkpt lat="44.47925" lon="1.00809">
        <ele>89</ele>
        <time>2014-01-18T14:51:41Z</time>
      </trkpt>
      <trkpt lat="44.47936" lon="1.00798">
        <ele>87</ele>
        <time>2014-01-18T14:51:46Z</time>
      </trkpt>
      <trkpt lat="44.47943" lon="1.00792">
        <ele>86</ele>
        <time>2014-01-18T14:52:01Z</time>
      </trkpt>
      <trkpt lat="44.47945" lon="1.00789">
        <ele>85</ele>
        <time>2014-01-18T14:52:08Z</time>
      </trkpt>
      <trkpt lat="44.47948" lon="1.00788">
        <ele>84</ele>
        <time>2014-01-18T14:52:11Z</time>
      </trkpt>
      <trkpt lat="44.47952" lon="1.00778">
        <ele>84</ele>
        <time>2014-01-18T14:52:26Z</time>
      </trkpt>
      <trkpt lat="44.47954" lon="1.00775">
        <ele>83</ele>
        <time>2014-01-18T14:52:42Z</time>
      </trkpt>
      <trkpt lat="44.47959" lon="1.00777">
        <ele>79</ele>
        <time>2014-01-18T14:52:55Z</time>
      </trkpt>
      <trkpt lat="44.47961" lon="1.00772">
        <ele>78</ele>
        <time>2014-01-18T14:53:06Z</time>
      </trkpt>
      <trkpt lat="44.47961" lon="1.00771">
        <ele>79</ele>
        <time>2014-01-18T14:53:19Z</time>
      </trkpt>
      <trkpt lat="44.47961" lon="1.0077">
        <ele>79</ele>
        <time>2014-01-18T14:53:43Z</time>
      </trkpt>
      <trkpt lat="44.47958" lon="1.00765">
        <ele>78</ele>
        <time>2014-01-18T14:53:57Z</time>
      </trkpt>
      <trkpt lat="44.47958" lon="1.00765">
        <ele>78</ele>
        <time>2014-01-18T14:54:22Z</time>
      </trkpt>
      <trkpt lat="44.47957" lon="1.00766">
        <ele>77</ele>
        <time>2014-01-18T14:54:40Z</time>
      </trkpt>
      <trkpt lat="44.47957" lon="1.00766">
        <ele>76</ele>
        <time>2014-01-18T14:55:17Z</time>
      </trkpt>
      <trkpt lat="44.47956" lon="1.00766">
        <ele>75</ele>
        <time>2014-01-18T14:55:51Z</time>
      </trkpt>
      <trkpt lat="44.47959" lon="1.0076">
        <ele>76</ele>
        <time>2014-01-18T14:56:10Z</time>
      </trkpt>
      <trkpt lat="44.4796" lon="1.00761">
        <ele>76</ele>
        <time>2014-01-18T14:56:28Z</time>
      </trkpt>
      <trkpt lat="44.47959" lon="1.00762">
        <ele>75</ele>
        <time>2014-01-18T14:57:00Z</time>
      </trkpt>
      <trkpt lat="44.47959" lon="1.00761">
        <ele>76</ele>
        <time>2014-01-18T14:57:36Z</time>
      </trkpt>
      <trkpt lat="44.47959" lon="1.0076">
        <ele>76</ele>
        <time>2014-01-18T14:58:05Z</time>
      </trkpt>
      <trkpt lat="44.47959" lon="1.00759">
        <ele>76</ele>
        <time>2014-01-18T14:58:46Z</time>
      </trkpt>
      <trkpt lat="44.47959" lon="1.00759">
        <ele>75</ele>
        <time>2014-01-18T14:59:26Z</time>
      </trkpt>
      <trkpt lat="44.47959" lon="1.00758">
        <ele>75</ele>
        <time>2014-01-18T14:59:55Z</time>
      </trkpt>
      <trkpt lat="44.47959" lon="1.00759">
        <ele>74</ele>
        <time>2014-01-18T15:00:29Z</time>
      </trkpt>
      <trkpt lat="44.4796" lon="1.00759">
        <ele>75</ele>
        <time>2014-01-18T15:01:03Z</time>
      </trkpt>
      <trkpt lat="44.4796" lon="1.00758">
        <ele>74</ele>
        <time>2014-01-18T15:01:41Z</time>
      </trkpt>
      <trkpt lat="44.4796" lon="1.00757">
        <ele>74</ele>
        <time>2014-01-18T15:02:01Z</time>
      </trkpt>
      <trkpt lat="44.47959" lon="1.00759">
        <ele>74</ele>
        <time>2014-01-18T15:02:40Z</time>
      </trkpt>
      <trkpt lat="44.47959" lon="1.00761">
        <ele>75</ele>
        <time>2014-01-18T15:03:17Z</time>
      </trkpt>
      <trkpt lat="44.47958" lon="1.00762">
        <ele>75</ele>
        <time>2014-01-18T15:03:45Z</time>
      </trkpt>
      <trkpt lat="44.47958" lon="1.00762">
        <ele>76</ele>
        <time>2014-01-18T15:04:15Z</time>
      </trkpt>
      <trkpt lat="44.47959" lon="1.00761">
        <ele>76</ele>
        <time>2014-01-18T15:05:00Z</time>
      </trkpt>
      <trkpt lat="44.47958" lon="1.00762">
        <ele>77</ele>
        <time>2014-01-18T15:05:33Z</time>
      </trkpt>
      <trkpt lat="44.47959" lon="1.00761">
        <ele>77</ele>
        <time>2014-01-18T15:05:53Z</time>
      </trkpt>
      <trkpt lat="44.47959" lon="1.00763">
        <ele>77</ele>
        <time>2014-01-18T15:06:23Z</time>
      </trkpt>
      <trkpt lat="44.47958" lon="1.00762">
        <ele>77</ele>
        <time>2014-01-18T15:06:41Z</time>
      </trkpt>
      <trkpt lat="44.47959" lon="1.00764">
        <ele>77</ele>
        <time>2014-01-18T15:06:43Z</time>
      </trkpt>
      <trkpt lat="44.47959" lon="1.00766">
        <ele>77</ele>
        <time>2014-01-18T15:06:46Z</time>
      </trkpt>
      <trkpt lat="44.47958" lon="1.00759">
        <ele>77</ele>
        <time>2014-01-18T15:06:51Z</time>
      </trkpt>
      <trkpt lat="44.47973" lon="1.00734">
        <ele>71</ele>
        <time>2014-01-18T15:07:00Z</time>
      </trkpt>
      <trkpt lat="44.47985" lon="1.00698">
        <ele>69</ele>
        <time>2014-01-18T15:07:07Z</time>
      </trkpt>
      <trkpt lat="44.47988" lon="1.00696">
        <ele>69</ele>
        <time>2014-01-18T15:07:08Z</time>
      </trkpt>
      <trkpt lat="44.47997" lon="1.00688">
        <ele>70</ele>
        <time>2014-01-18T15:07:13Z</time>
      </trkpt>
      <trkpt lat="44.47999" lon="1.00688">
        <ele>70</ele>
        <time>2014-01-18T15:07:14Z</time>
      </trkpt>
      <trkpt lat="44.48004" lon="1.00683">
        <ele>70</ele>
        <time>2014-01-18T15:07:17Z</time>
      </trkpt>
      <trkpt lat="44.48029" lon="1.00647">
        <ele>71</ele>
        <time>2014-01-18T15:07:30Z</time>
      </trkpt>
      <trkpt lat="44.48053" lon="1.0061">
        <ele>70</ele>
        <time>2014-01-18T15:07:42Z</time>
      </trkpt>
      <trkpt lat="44.48088" lon="1.00568">
        <ele>66</ele>
        <time>2014-01-18T15:07:55Z</time>
      </trkpt>
      <trkpt lat="44.48109" lon="1.00518">
        <ele>61</ele>
        <time>2014-01-18T15:08:06Z</time>
      </trkpt>
      <trkpt lat="44.48112" lon="1.0051">
        <ele>61</ele>
        <time>2014-01-18T15:08:08Z</time>
      </trkpt>
      <trkpt lat="44.48119" lon="1.00497">
        <ele>61</ele>
        <time>2014-01-18T15:08:12Z</time>
      </trkpt>
      <trkpt lat="44.48145" lon="1.00452">
        <ele>61</ele>
        <time>2014-01-18T15:08:25Z</time>
      </trkpt>
      <trkpt lat="44.48151" lon="1.0043">
        <ele>63</ele>
        <time>2014-01-18T15:08:30Z</time>
      </trkpt>
      <trkpt lat="44.48153" lon="1.00415">
        <ele>65</ele>
        <time>2014-01-18T15:08:36Z</time>
      </trkpt>
      <trkpt lat="44.48183" lon="1.00357">
        <ele>60</ele>
        <time>2014-01-18T15:08:50Z</time>
      </trkpt>
      <trkpt lat="44.48202" lon="1.00314">
        <ele>57</ele>
        <time>2014-01-18T15:09:00Z</time>
      </trkpt>
      <trkpt lat="44.48232" lon="1.00253">
        <ele>58</ele>
        <time>2014-01-18T15:09:11Z</time>
      </trkpt>
      <trkpt lat="44.48253" lon="1.00207">
        <ele>59</ele>
        <time>2014-01-18T15:09:21Z</time>
      </trkpt>
      <trkpt lat="44.48269" lon="1.00163">
        <ele>56</ele>
        <time>2014-01-18T15:09:31Z</time>
      </trkpt>
      <trkpt lat="44.48298" lon="1.00105">
        <ele>56</ele>
        <time>2014-01-18T15:09:43Z</time>
      </trkpt>
      <trkpt lat="44.48324" lon="1.00054">
        <ele>57</ele>
        <time>2014-01-18T15:09:54Z</time>
      </trkpt>
      <trkpt lat="44.48347" lon="1.00001">
        <ele>61</ele>
        <time>2014-01-18T15:10:05Z</time>
      </trkpt>
      <trkpt lat="44.48357" lon="0.99991">
        <ele>61</ele>
        <time>2014-01-18T15:10:08Z</time>
      </trkpt>
      <trkpt lat="44.48399" lon="0.99924">
        <ele>65</ele>
        <time>2014-01-18T15:10:22Z</time>
      </trkpt>
      <trkpt lat="44.48436" lon="0.99851">
        <ele>68</ele>
        <time>2014-01-18T15:10:37Z</time>
      </trkpt>
      <trkpt lat="44.48462" lon="0.99805">
        <ele>68</ele>
        <time>2014-01-18T15:10:47Z</time>
      </trkpt>
      <trkpt lat="44.48485" lon="0.99749">
        <ele>68</ele>
        <time>2014-01-18T15:11:00Z</time>
      </trkpt>
      <trkpt lat="44.48476" lon="0.99737">
        <ele>69</ele>
        <time>2014-01-18T15:11:04Z</time>
      </trkpt>
      <trkpt lat="44.48463" lon="0.99724">
        <ele>71</ele>
        <time>2014-01-18T15:11:11Z</time>
      </trkpt>
      <trkpt lat="44.48466" lon="0.99712">
        <ele>72</ele>
        <time>2014-01-18T15:11:17Z</time>
      </trkpt>
      <trkpt lat="44.48483" lon="0.99678">
        <ele>72</ele>
        <time>2014-01-18T15:11:29Z</time>
      </trkpt>
      <trkpt lat="44.48517" lon="0.99625">
        <ele>72</ele>
        <time>2014-01-18T15:11:45Z</time>
      </trkpt>
      <trkpt lat="44.48539" lon="0.9959">
        <ele>72</ele>
        <time>2014-01-18T15:11:56Z</time>
      </trkpt>
      <trkpt lat="44.48567" lon="0.99551">
        <ele>73</ele>
        <time>2014-01-18T15:12:08Z</time>
      </trkpt>
      <trkpt lat="44.48599" lon="0.99506">
        <ele>74</ele>
        <time>2014-01-18T15:12:20Z</time>
      </trkpt>
      <trkpt lat="44.48604" lon="0.99462">
        <ele>74</ele>
        <time>2014-01-18T15:12:30Z</time>
      </trkpt>
      <trkpt lat="44.48598" lon="0.99442">
        <ele>73</ele>
        <time>2014-01-18T15:12:40Z</time>
      </trkpt>
      <trkpt lat="44.48598" lon="0.99442">
        <ele>73</ele>
        <time>2014-01-18T15:13:00Z</time>
      </trkpt>
      <trkpt lat="44.48598" lon="0.99442">
        <ele>73</ele>
        <time>2014-01-18T15:13:17Z</time>
      </trkpt>
      <trkpt lat="44.48598" lon="0.99442">
        <ele>73</ele>
        <time>2014-01-18T15:13:24Z</time>
      </trkpt>
      <trkpt lat="44.486" lon="0.99437">
        <ele>73</ele>
        <time>2014-01-18T15:13:27Z</time>
      </trkpt>
      <trkpt lat="44.48602" lon="0.99435">
        <ele>73</ele>
        <time>2014-01-18T15:13:28Z</time>
      </trkpt>
      <trkpt lat="44.48605" lon="0.99433">
        <ele>73</ele>
        <time>2014-01-18T15:13:29Z</time>
      </trkpt>
      <trkpt lat="44.48607" lon="0.9943">
        <ele>73</ele>
        <time>2014-01-18T15:13:30Z</time>
      </trkpt>
      <trkpt lat="44.48628" lon="0.99407">
        <ele>73</ele>
        <time>2014-01-18T15:13:37Z</time>
      </trkpt>
      <trkpt lat="44.48634" lon="0.994">
        <ele>73</ele>
        <time>2014-01-18T15:13:39Z</time>
      </trkpt>
      <trkpt lat="44.48637" lon="0.99396">
        <ele>72</ele>
        <time>2014-01-18T15:13:40Z</time>
      </trkpt>
      <trkpt lat="44.48705" lon="0.9932">
        <ele>71</ele>
        <time>2014-01-18T15:13:58Z</time>
      </trkpt>
      <trkpt lat="44.48781" lon="0.99245">
        <ele>71</ele>
        <time>2014-01-18T15:14:16Z</time>
      </trkpt>
      <trkpt lat="44.48816" lon="0.99211">
        <ele>71</ele>
        <time>2014-01-18T15:14:24Z</time>
      </trkpt>
      <trkpt lat="44.48821" lon="0.99207">
        <ele>71</ele>
        <time>2014-01-18T15:14:25Z</time>
      </trkpt>
      <trkpt lat="44.48878" lon="0.99131">
        <ele>70</ele>
        <time>2014-01-18T15:14:40Z</time>
      </trkpt>
      <trkpt lat="44.48888" lon="0.99113">
        <ele>70</ele>
        <time>2014-01-18T15:14:43Z</time>
      </trkpt>
      <trkpt lat="44.48894" lon="0.99101">
        <ele>71</ele>
        <time>2014-01-18T15:14:45Z</time>
      </trkpt>
      <trkpt lat="44.48897" lon="0.99095">
        <ele>71</ele>
        <time>2014-01-18T15:14:46Z</time>
      </trkpt>
      <trkpt lat="44.48952" lon="0.99003">
        <ele>71</ele>
        <time>2014-01-18T15:15:02Z</time>
      </trkpt>
      <trkpt lat="44.48992" lon="0.98948">
        <ele>71</ele>
        <time>2014-01-18T15:15:13Z</time>
      </trkpt>
      <trkpt lat="44.49011" lon="0.98923">
        <ele>71</ele>
        <time>2014-01-18T15:15:20Z</time>
      </trkpt>
      <trkpt lat="44.49014" lon="0.98923">
        <ele>72</ele>
        <time>2014-01-18T15:15:21Z</time>
      </trkpt>
      <trkpt lat="44.49016" lon="0.98923">
        <ele>71</ele>
        <time>2014-01-18T15:15:22Z</time>
      </trkpt>
      <trkpt lat="44.49018" lon="0.98924">
        <ele>71</ele>
        <time>2014-01-18T15:15:23Z</time>
      </trkpt>
      <trkpt lat="44.49021" lon="0.98925">
        <ele>71</ele>
        <time>2014-01-18T15:15:24Z</time>
      </trkpt>
      <trkpt lat="44.49023" lon="0.98926">
        <ele>71</ele>
        <time>2014-01-18T15:15:25Z</time>
      </trkpt>
      <trkpt lat="44.49025" lon="0.98927">
        <ele>71</ele>
        <time>2014-01-18T15:15:26Z</time>
      </trkpt>
      <trkpt lat="44.49027" lon="0.98928">
        <ele>71</ele>
        <time>2014-01-18T15:15:27Z</time>
      </trkpt>
      <trkpt lat="44.49028" lon="0.98929">
        <ele>71</ele>
        <time>2014-01-18T15:15:28Z</time>
      </trkpt>
      <trkpt lat="44.49029" lon="0.9893">
        <ele>71</ele>
        <time>2014-01-18T15:15:29Z</time>
      </trkpt>
      <trkpt lat="44.49049" lon="0.98938">
        <ele>72</ele>
        <time>2014-01-18T15:15:39Z</time>
      </trkpt>
      <trkpt lat="44.49098" lon="0.98962">
        <ele>71</ele>
        <time>2014-01-18T15:15:49Z</time>
      </trkpt>
      <trkpt lat="44.49112" lon="0.98965">
        <ele>71</ele>
        <time>2014-01-18T15:15:52Z</time>
      </trkpt>
      <trkpt lat="44.49117" lon="0.98964">
        <ele>71</ele>
        <time>2014-01-18T15:15:53Z</time>
      </trkpt>
      <trkpt lat="44.49121" lon="0.98962">
        <ele>71</ele>
        <time>2014-01-18T15:15:54Z</time>
      </trkpt>
      <trkpt lat="44.49125" lon="0.98959">
        <ele>71</ele>
        <time>2014-01-18T15:15:55Z</time>
      </trkpt>
      <trkpt lat="44.49128" lon="0.98955">
        <ele>71</ele>
        <time>2014-01-18T15:15:56Z</time>
      </trkpt>
      <trkpt lat="44.49135" lon="0.98947">
        <ele>70</ele>
        <time>2014-01-18T15:15:58Z</time>
      </trkpt>
      <trkpt lat="44.49139" lon="0.98943">
        <ele>70</ele>
        <time>2014-01-18T15:15:59Z</time>
      </trkpt>
      <trkpt lat="44.49142" lon="0.98939">
        <ele>70</ele>
        <time>2014-01-18T15:16:00Z</time>
      </trkpt>
      <trkpt lat="44.49145" lon="0.98934">
        <ele>70</ele>
        <time>2014-01-18T15:16:01Z</time>
      </trkpt>
      <trkpt lat="44.49149" lon="0.9893">
        <ele>70</ele>
        <time>2014-01-18T15:16:02Z</time>
      </trkpt>
      <trkpt lat="44.49153" lon="0.98927">
        <ele>70</ele>
        <time>2014-01-18T15:16:03Z</time>
      </trkpt>
      <trkpt lat="44.49157" lon="0.98923">
        <ele>70</ele>
        <time>2014-01-18T15:16:04Z</time>
      </trkpt>
      <trkpt lat="44.4918" lon="0.989">
        <ele>72</ele>
        <time>2014-01-18T15:16:11Z</time>
      </trkpt>
      <trkpt lat="44.49165" lon="0.98857">
        <ele>72</ele>
        <time>2014-01-18T15:16:25Z</time>
      </trkpt>
      <trkpt lat="44.49165" lon="0.98854">
        <ele>72</ele>
        <time>2014-01-18T15:16:26Z</time>
      </trkpt>
      <trkpt lat="44.49166" lon="0.98854">
        <ele>72</ele>
        <time>2014-01-18T15:16:27Z</time>
      </trkpt>
      <trkpt lat="44.49167" lon="0.98856">
        <ele>72</ele>
        <time>2014-01-18T15:16:29Z</time>
      </trkpt>
      <trkpt lat="44.49168" lon="0.98858">
        <ele>72</ele>
        <time>2014-01-18T15:16:30Z</time>
      </trkpt>
      <trkpt lat="44.49169" lon="0.98861">
        <ele>72</ele>
        <time>2014-01-18T15:16:31Z</time>
      </trkpt>
      <trkpt lat="44.49192" lon="0.9892">
        <ele>71</ele>
        <time>2014-01-18T15:16:47Z</time>
      </trkpt>
      <trkpt lat="44.49222" lon="0.98997">
        <ele>70</ele>
        <time>2014-01-18T15:17:02Z</time>
      </trkpt>
      <trkpt lat="44.49266" lon="0.99109">
        <ele>69</ele>
        <time>2014-01-18T15:17:23Z</time>
      </trkpt>
      <trkpt lat="44.49283" lon="0.99153">
        <ele>68</ele>
        <time>2014-01-18T15:17:34Z</time>
      </trkpt>
      <trkpt lat="44.49314" lon="0.99247">
        <ele>68</ele>
        <time>2014-01-18T15:17:52Z</time>
      </trkpt>
      <trkpt lat="44.49318" lon="0.99261">
        <ele>68</ele>
        <time>2014-01-18T15:17:56Z</time>
      </trkpt>
      <trkpt lat="44.49317" lon="0.99261">
        <ele>68</ele>
        <time>2014-01-18T15:17:57Z</time>
      </trkpt>
      <trkpt lat="44.49305" lon="0.99221">
        <ele>68</ele>
        <time>2014-01-18T15:18:08Z</time>
      </trkpt>
      <trkpt lat="44.49296" lon="0.99195">
        <ele>69</ele>
        <time>2014-01-18T15:18:18Z</time>
      </trkpt>
      <trkpt lat="44.49297" lon="0.99198">
        <ele>69</ele>
        <time>2014-01-18T15:18:29Z</time>
      </trkpt>
      <trkpt lat="44.49288" lon="0.99189">
        <ele>67</ele>
        <time>2014-01-18T15:18:35Z</time>
      </trkpt>
      <trkpt lat="44.49274" lon="0.99167">
        <ele>65</ele>
        <time>2014-01-18T15:18:42Z</time>
      </trkpt>
      <trkpt lat="44.49253" lon="0.99117">
        <ele>62</ele>
        <time>2014-01-18T15:18:55Z</time>
      </trkpt>
      <trkpt lat="44.49248" lon="0.99099">
        <ele>62</ele>
        <time>2014-01-18T15:18:59Z</time>
      </trkpt>
      <trkpt lat="44.4925" lon="0.99096">
        <ele>61</ele>
        <time>2014-01-18T15:19:00Z</time>
      </trkpt>
      <trkpt lat="44.49252" lon="0.99095">
        <ele>61</ele>
        <time>2014-01-18T15:19:01Z</time>
      </trkpt>
      <trkpt lat="44.49253" lon="0.99093">
        <ele>61</ele>
        <time>2014-01-18T15:19:02Z</time>
      </trkpt>
      <trkpt lat="44.49254" lon="0.99093">
        <ele>62</ele>
        <time>2014-01-18T15:19:15Z</time>
      </trkpt>
      <trkpt lat="44.49257" lon="0.99091">
        <ele>62</ele>
        <time>2014-01-18T15:19:28Z</time>
      </trkpt>
      <trkpt lat="44.49257" lon="0.99089">
        <ele>62</ele>
        <time>2014-01-18T15:19:29Z</time>
      </trkpt>
      <trkpt lat="44.49258" lon="0.99087">
        <ele>62</ele>
        <time>2014-01-18T15:19:30Z</time>
      </trkpt>
      <trkpt lat="44.49259" lon="0.99085">
        <ele>62</ele>
        <time>2014-01-18T15:19:31Z</time>
      </trkpt>
      <trkpt lat="44.49261" lon="0.99084">
        <ele>62</ele>
        <time>2014-01-18T15:19:32Z</time>
      </trkpt>
      <trkpt lat="44.49267" lon="0.99077">
        <ele>62</ele>
        <time>2014-01-18T15:19:37Z</time>
      </trkpt>
      <trkpt lat="44.49269" lon="0.99076">
        <ele>62</ele>
        <time>2014-01-18T15:19:38Z</time>
      </trkpt>
      <trkpt lat="44.49272" lon="0.99074">
        <ele>62</ele>
        <time>2014-01-18T15:19:39Z</time>
      </trkpt>
      <trkpt lat="44.49308" lon="0.99046">
        <ele>62</ele>
        <time>2014-01-18T15:19:50Z</time>
      </trkpt>
      <trkpt lat="44.49333" lon="0.99022">
        <ele>62</ele>
        <time>2014-01-18T15:19:58Z</time>
      </trkpt>
      <trkpt lat="44.49337" lon="0.99018">
        <ele>62</ele>
        <time>2014-01-18T15:19:59Z</time>
      </trkpt>
      <trkpt lat="44.49389" lon="0.98966">
        <ele>63</ele>
        <time>2014-01-18T15:20:13Z</time>
      </trkpt>
      <trkpt lat="44.49392" lon="0.98962">
        <ele>63</ele>
        <time>2014-01-18T15:20:14Z</time>
      </trkpt>
      <trkpt lat="44.49438" lon="0.98914">
        <ele>63</ele>
        <time>2014-01-18T15:20:28Z</time>
      </trkpt>
      <trkpt lat="44.49486" lon="0.98854">
        <ele>63</ele>
        <time>2014-01-18T15:20:44Z</time>
      </trkpt>
      <trkpt lat="44.49513" lon="0.98827">
        <ele>63</ele>
        <time>2014-01-18T15:20:51Z</time>
      </trkpt>
      <trkpt lat="44.49517" lon="0.98824">
        <ele>63</ele>
        <time>2014-01-18T15:20:52Z</time>
      </trkpt>
      <trkpt lat="44.49569" lon="0.98808">
        <ele>62</ele>
        <time>2014-01-18T15:21:05Z</time>
      </trkpt>
      <trkpt lat="44.49587" lon="0.98804">
        <ele>63</ele>
        <time>2014-01-18T15:21:09Z</time>
      </trkpt>
      <trkpt lat="44.49591" lon="0.98803">
        <ele>62</ele>
        <time>2014-01-18T15:21:10Z</time>
      </trkpt>
      <trkpt lat="44.49595" lon="0.98801">
        <ele>62</ele>
        <time>2014-01-18T15:21:11Z</time>
      </trkpt>
      <trkpt lat="44.49599" lon="0.98799">
        <ele>62</ele>
        <time>2014-01-18T15:21:12Z</time>
      </trkpt>
      <trkpt lat="44.49603" lon="0.98798">
        <ele>62</ele>
        <time>2014-01-18T15:21:13Z</time>
      </trkpt>
      <trkpt lat="44.49607" lon="0.98795">
        <ele>62</ele>
        <time>2014-01-18T15:21:14Z</time>
      </trkpt>
      <trkpt lat="44.4961" lon="0.98791">
        <ele>62</ele>
        <time>2014-01-18T15:21:15Z</time>
      </trkpt>
      <trkpt lat="44.49613" lon="0.98785">
        <ele>62</ele>
        <time>2014-01-18T15:21:16Z</time>
      </trkpt>
      <trkpt lat="44.49616" lon="0.98774">
        <ele>62</ele>
        <time>2014-01-18T15:21:18Z</time>
      </trkpt>
      <trkpt lat="44.49617" lon="0.98767">
        <ele>62</ele>
        <time>2014-01-18T15:21:19Z</time>
      </trkpt>
      <trkpt lat="44.49617" lon="0.9876">
        <ele>62</ele>
        <time>2014-01-18T15:21:20Z</time>
      </trkpt>
      <trkpt lat="44.49616" lon="0.98754">
        <ele>62</ele>
        <time>2014-01-18T15:21:21Z</time>
      </trkpt>
      <trkpt lat="44.49613" lon="0.98748">
        <ele>62</ele>
        <time>2014-01-18T15:21:22Z</time>
      </trkpt>
      <trkpt lat="44.4961" lon="0.98743">
        <ele>63</ele>
        <time>2014-01-18T15:21:23Z</time>
      </trkpt>
      <trkpt lat="44.49607" lon="0.98738">
        <ele>63</ele>
        <time>2014-01-18T15:21:24Z</time>
      </trkpt>
      <trkpt lat="44.49607" lon="0.98733">
        <ele>62</ele>
        <time>2014-01-18T15:21:25Z</time>
      </trkpt>
      <trkpt lat="44.49609" lon="0.98729">
        <ele>63</ele>
        <time>2014-01-18T15:21:26Z</time>
      </trkpt>
      <trkpt lat="44.49612" lon="0.98727">
        <ele>63</ele>
        <time>2014-01-18T15:21:27Z</time>
      </trkpt>
      <trkpt lat="44.49614" lon="0.98725">
        <ele>63</ele>
        <time>2014-01-18T15:21:28Z</time>
      </trkpt>
      <trkpt lat="44.49615" lon="0.98722">
        <ele>63</ele>
        <time>2014-01-18T15:21:29Z</time>
      </trkpt>
      <trkpt lat="44.49615" lon="0.98719">
        <ele>63</ele>
        <time>2014-01-18T15:21:30Z</time>
      </trkpt>
      <trkpt lat="44.49615" lon="0.98717">
        <ele>63</ele>
        <time>2014-01-18T15:21:31Z</time>
      </trkpt>
      <trkpt lat="44.49613" lon="0.98714">
        <ele>63</ele>
        <time>2014-01-18T15:21:32Z</time>
      </trkpt>
      <trkpt lat="44.49612" lon="0.98712">
        <ele>63</ele>
        <time>2014-01-18T15:21:33Z</time>
      </trkpt>
      <trkpt lat="44.49611" lon="0.98708">
        <ele>63</ele>
        <time>2014-01-18T15:21:44Z</time>
      </trkpt>
      <trkpt lat="44.4961" lon="0.98707">
        <ele>62</ele>
        <time>2014-01-18T15:21:53Z</time>
      </trkpt>
      <trkpt lat="44.49609" lon="0.98704">
        <ele>62</ele>
        <time>2014-01-18T15:21:54Z</time>
      </trkpt>
      <trkpt lat="44.49608" lon="0.987">
        <ele>62</ele>
        <time>2014-01-18T15:21:55Z</time>
      </trkpt>
      <trkpt lat="44.49607" lon="0.98695">
        <ele>62</ele>
        <time>2014-01-18T15:21:56Z</time>
      </trkpt>
      <trkpt lat="44.49607" lon="0.9869">
        <ele>62</ele>
        <time>2014-01-18T15:21:57Z</time>
      </trkpt>
      <trkpt lat="44.49608" lon="0.98684">
        <ele>62</ele>
        <time>2014-01-18T15:21:58Z</time>
      </trkpt>
      <trkpt lat="44.4961" lon="0.98678">
        <ele>62</ele>
        <time>2014-01-18T15:21:59Z</time>
      </trkpt>
      <trkpt lat="44.49612" lon="0.98673">
        <ele>62</ele>
        <time>2014-01-18T15:22:00Z</time>
      </trkpt>
      <trkpt lat="44.49615" lon="0.98668">
        <ele>62</ele>
        <time>2014-01-18T15:22:01Z</time>
      </trkpt>
      <trkpt lat="44.49617" lon="0.98663">
        <ele>62</ele>
        <time>2014-01-18T15:22:02Z</time>
      </trkpt>
      <trkpt lat="44.49634" lon="0.98635">
        <ele>62</ele>
        <time>2014-01-18T15:22:10Z</time>
      </trkpt>
      <trkpt lat="44.49634" lon="0.98633">
        <ele>62</ele>
        <time>2014-01-18T15:22:11Z</time>
      </trkpt>
      <trkpt lat="44.49635" lon="0.9863">
        <ele>62</ele>
        <time>2014-01-18T15:22:12Z</time>
      </trkpt>
      <trkpt lat="44.49637" lon="0.98628">
        <ele>62</ele>
        <time>2014-01-18T15:22:13Z</time>
      </trkpt>
      <trkpt lat="44.49639" lon="0.98624">
        <ele>62</ele>
        <time>2014-01-18T15:22:14Z</time>
      </trkpt>
      <trkpt lat="44.49662" lon="0.9858">
        <ele>62</ele>
        <time>2014-01-18T15:22:25Z</time>
      </trkpt>
      <trkpt lat="44.49696" lon="0.98516">
        <ele>62</ele>
        <time>2014-01-18T15:22:39Z</time>
      </trkpt>
      <trkpt lat="44.49698" lon="0.98511">
        <ele>62</ele>
        <time>2014-01-18T15:22:40Z</time>
      </trkpt>
      <trkpt lat="44.497" lon="0.98507">
        <ele>63</ele>
        <time>2014-01-18T15:22:41Z</time>
      </trkpt>
      <trkpt lat="44.49702" lon="0.98502">
        <ele>63</ele>
        <time>2014-01-18T15:22:42Z</time>
      </trkpt>
      <trkpt lat="44.4973" lon="0.98453">
        <ele>63</ele>
        <time>2014-01-18T15:22:55Z</time>
      </trkpt>
      <trkpt lat="44.49753" lon="0.98395">
        <ele>63</ele>
        <time>2014-01-18T15:23:07Z</time>
      </trkpt>
      <trkpt lat="44.4977" lon="0.98354">
        <ele>63</ele>
        <time>2014-01-18T15:23:18Z</time>
      </trkpt>
      <trkpt lat="44.49785" lon="0.98358">
        <ele>65</ele>
        <time>2014-01-18T15:23:23Z</time>
      </trkpt>
      <trkpt lat="44.49789" lon="0.98372">
        <ele>67</ele>
        <time>2014-01-18T15:23:27Z</time>
      </trkpt>
      <trkpt lat="44.49787" lon="0.98375">
        <ele>68</ele>
        <time>2014-01-18T15:23:28Z</time>
      </trkpt>
      <trkpt lat="44.49785" lon="0.98376">
        <ele>69</ele>
        <time>2014-01-18T15:23:29Z</time>
      </trkpt>
      <trkpt lat="44.49782" lon="0.98377">
        <ele>69</ele>
        <time>2014-01-18T15:23:30Z</time>
      </trkpt>
      <trkpt lat="44.49775" lon="0.98376">
        <ele>69</ele>
        <time>2014-01-18T15:23:33Z</time>
      </trkpt>
      <trkpt lat="44.49774" lon="0.98373">
        <ele>69</ele>
        <time>2014-01-18T15:23:34Z</time>
      </trkpt>
      <trkpt lat="44.49774" lon="0.98371">
        <ele>69</ele>
        <time>2014-01-18T15:23:35Z</time>
      </trkpt>
      <trkpt lat="44.49774" lon="0.98369">
        <ele>69</ele>
        <time>2014-01-18T15:23:36Z</time>
      </trkpt>
      <trkpt lat="44.49775" lon="0.98367">
        <ele>69</ele>
        <time>2014-01-18T15:23:37Z</time>
      </trkpt>
      <trkpt lat="44.49776" lon="0.98366">
        <ele>69</ele>
        <time>2014-01-18T15:23:38Z</time>
      </trkpt>
      <trkpt lat="44.49777" lon="0.98365">
        <ele>69</ele>
        <time>2014-01-18T15:23:39Z</time>
      </trkpt>
      <trkpt lat="44.49777" lon="0.98363">
        <ele>69</ele>
        <time>2014-01-18T15:23:40Z</time>
      </trkpt>
      <trkpt lat="44.49777" lon="0.98361">
        <ele>69</ele>
        <time>2014-01-18T15:23:41Z</time>
      </trkpt>
      <trkpt lat="44.49776" lon="0.9836">
        <ele>69</ele>
        <time>2014-01-18T15:23:42Z</time>
      </trkpt>
      <trkpt lat="44.49776" lon="0.98358">
        <ele>69</ele>
        <time>2014-01-18T15:23:43Z</time>
      </trkpt>
      <trkpt lat="44.49777" lon="0.98356">
        <ele>69</ele>
        <time>2014-01-18T15:23:44Z</time>
      </trkpt>
      <trkpt lat="44.49778" lon="0.98349">
        <ele>69</ele>
        <time>2014-01-18T15:23:48Z</time>
      </trkpt>
      <trkpt lat="44.4978" lon="0.98343">
        <ele>70</ele>
        <time>2014-01-18T15:24:00Z</time>
      </trkpt>
      <trkpt lat="44.49781" lon="0.98341">
        <ele>71</ele>
        <time>2014-01-18T15:24:16Z</time>
      </trkpt>
      <trkpt lat="44.49781" lon="0.98339">
        <ele>70</ele>
        <time>2014-01-18T15:24:17Z</time>
      </trkpt>
      <trkpt lat="44.49782" lon="0.98337">
        <ele>70</ele>
        <time>2014-01-18T15:24:18Z</time>
      </trkpt>
      <trkpt lat="44.49793" lon="0.98299">
        <ele>69</ele>
        <time>2014-01-18T15:24:27Z</time>
      </trkpt>
      <trkpt lat="44.49798" lon="0.98282">
        <ele>69</ele>
        <time>2014-01-18T15:24:30Z</time>
      </trkpt>
      <trkpt lat="44.498" lon="0.98276">
        <ele>68</ele>
        <time>2014-01-18T15:24:31Z</time>
      </trkpt>
      <trkpt lat="44.49802" lon="0.98269">
        <ele>68</ele>
        <time>2014-01-18T15:24:32Z</time>
      </trkpt>
      <trkpt lat="44.49811" lon="0.98237">
        <ele>68</ele>
        <time>2014-01-18T15:24:37Z</time>
      </trkpt>
      <trkpt lat="44.49813" lon="0.9823">
        <ele>68</ele>
        <time>2014-01-18T15:24:38Z</time>
      </trkpt>
      <trkpt lat="44.49815" lon="0.98223">
        <ele>68</ele>
        <time>2014-01-18T15:24:39Z</time>
      </trkpt>
      <trkpt lat="44.49825" lon="0.98187">
        <ele>67</ele>
        <time>2014-01-18T15:24:44Z</time>
      </trkpt>
      <trkpt lat="44.49827" lon="0.9818">
        <ele>67</ele>
        <time>2014-01-18T15:24:45Z</time>
      </trkpt>
      <trkpt lat="44.49836" lon="0.9815">
        <ele>67</ele>
        <time>2014-01-18T15:24:49Z</time>
      </trkpt>
      <trkpt lat="44.49837" lon="0.98143">
        <ele>67</ele>
        <time>2014-01-18T15:24:50Z</time>
      </trkpt>
      <trkpt lat="44.49844" lon="0.98104">
        <ele>67</ele>
        <time>2014-01-18T15:24:55Z</time>
      </trkpt>
      <trkpt lat="44.49845" lon="0.98096">
        <ele>67</ele>
        <time>2014-01-18T15:24:56Z</time>
      </trkpt>
      <trkpt lat="44.49847" lon="0.98072">
        <ele>67</ele>
        <time>2014-01-18T15:24:59Z</time>
      </trkpt>
      <trkpt lat="44.49848" lon="0.97994">
        <ele>66</ele>
        <time>2014-01-18T15:25:09Z</time>
      </trkpt>
      <trkpt lat="44.49847" lon="0.9793">
        <ele>67</ele>
        <time>2014-01-18T15:25:17Z</time>
      </trkpt>
      <trkpt lat="44.4984" lon="0.97834">
        <ele>67</ele>
        <time>2014-01-18T15:25:29Z</time>
      </trkpt>
      <trkpt lat="44.49839" lon="0.97819">
        <ele>67</ele>
        <time>2014-01-18T15:25:31Z</time>
      </trkpt>
      <trkpt lat="44.49832" lon="0.97765">
        <ele>66</ele>
        <time>2014-01-18T15:25:38Z</time>
      </trkpt>
      <trkpt lat="44.49831" lon="0.97757">
        <ele>65</ele>
        <time>2014-01-18T15:25:39Z</time>
      </trkpt>
      <trkpt lat="44.4983" lon="0.9775">
        <ele>65</ele>
        <time>2014-01-18T15:25:40Z</time>
      </trkpt>
      <trkpt lat="44.49828" lon="0.97743">
        <ele>65</ele>
        <time>2014-01-18T15:25:41Z</time>
      </trkpt>
      <trkpt lat="44.49826" lon="0.97735">
        <ele>65</ele>
        <time>2014-01-18T15:25:42Z</time>
      </trkpt>
      <trkpt lat="44.49825" lon="0.97728">
        <ele>65</ele>
        <time>2014-01-18T15:25:43Z</time>
      </trkpt>
      <trkpt lat="44.49823" lon="0.9772">
        <ele>64</ele>
        <time>2014-01-18T15:25:44Z</time>
      </trkpt>
      <trkpt lat="44.49822" lon="0.97712">
        <ele>64</ele>
        <time>2014-01-18T15:25:45Z</time>
      </trkpt>
      <trkpt lat="44.49814" lon="0.97673">
        <ele>65</ele>
        <time>2014-01-18T15:25:50Z</time>
      </trkpt>
      <trkpt lat="44.49811" lon="0.97657">
        <ele>65</ele>
        <time>2014-01-18T15:25:52Z</time>
      </trkpt>
      <trkpt lat="44.49807" lon="0.97642">
        <ele>66</ele>
        <time>2014-01-18T15:25:54Z</time>
      </trkpt>
      <trkpt lat="44.49794" lon="0.97587">
        <ele>66</ele>
        <time>2014-01-18T15:26:02Z</time>
      </trkpt>
      <trkpt lat="44.49792" lon="0.97581">
        <ele>66</ele>
        <time>2014-01-18T15:26:03Z</time>
      </trkpt>
      <trkpt lat="44.49789" lon="0.97569">
        <ele>67</ele>
        <time>2014-01-18T15:26:05Z</time>
      </trkpt>
      <trkpt lat="44.49787" lon="0.97563">
        <ele>67</ele>
        <time>2014-01-18T15:26:06Z</time>
      </trkpt>
      <trkpt lat="44.49785" lon="0.97557">
        <ele>67</ele>
        <time>2014-01-18T15:26:07Z</time>
      </trkpt>
      <trkpt lat="44.49783" lon="0.97551">
        <ele>67</ele>
        <time>2014-01-18T15:26:08Z</time>
      </trkpt>
      <trkpt lat="44.49782" lon="0.97545">
        <ele>67</ele>
        <time>2014-01-18T15:26:09Z</time>
      </trkpt>
      <trkpt lat="44.4978" lon="0.97538">
        <ele>67</ele>
        <time>2014-01-18T15:26:10Z</time>
      </trkpt>
      <trkpt lat="44.49779" lon="0.97531">
        <ele>67</ele>
        <time>2014-01-18T15:26:11Z</time>
      </trkpt>
      <trkpt lat="44.49749" lon="0.97421">
        <ele>69</ele>
        <time>2014-01-18T15:26:26Z</time>
      </trkpt>
      <trkpt lat="44.49733" lon="0.97368">
        <ele>70</ele>
        <time>2014-01-18T15:26:33Z</time>
      </trkpt>
      <trkpt lat="44.49731" lon="0.97361">
        <ele>70</ele>
        <time>2014-01-18T15:26:34Z</time>
      </trkpt>
      <trkpt lat="44.49705" lon="0.97273">
        <ele>72</ele>
        <time>2014-01-18T15:26:46Z</time>
      </trkpt>
      <trkpt lat="44.49666" lon="0.9716">
        <ele>76</ele>
        <time>2014-01-18T15:27:02Z</time>
      </trkpt>
      <trkpt lat="44.49651" lon="0.97117">
        <ele>77</ele>
        <time>2014-01-18T15:27:08Z</time>
      </trkpt>
      <trkpt lat="44.49627" lon="0.97056">
        <ele>77</ele>
        <time>2014-01-18T15:27:17Z</time>
      </trkpt>
      <trkpt lat="44.49624" lon="0.9705">
        <ele>77</ele>
        <time>2014-01-18T15:27:18Z</time>
      </trkpt>
      <trkpt lat="44.49622" lon="0.97044">
        <ele>77</ele>
        <time>2014-01-18T15:27:19Z</time>
      </trkpt>
      <trkpt lat="44.4962" lon="0.97037">
        <ele>77</ele>
        <time>2014-01-18T15:27:20Z</time>
      </trkpt>
      <trkpt lat="44.49617" lon="0.97031">
        <ele>77</ele>
        <time>2014-01-18T15:27:21Z</time>
      </trkpt>
      <trkpt lat="44.49614" lon="0.97025">
        <ele>77</ele>
        <time>2014-01-18T15:27:22Z</time>
      </trkpt>
      <trkpt lat="44.49612" lon="0.97018">
        <ele>77</ele>
        <time>2014-01-18T15:27:23Z</time>
      </trkpt>
      <trkpt lat="44.4958" lon="0.96926">
        <ele>79</ele>
        <time>2014-01-18T15:27:36Z</time>
      </trkpt>
      <trkpt lat="44.49539" lon="0.96823">
        <ele>78</ele>
        <time>2014-01-18T15:27:51Z</time>
      </trkpt>
      <trkpt lat="44.49538" lon="0.96815">
        <ele>78</ele>
        <time>2014-01-18T15:27:52Z</time>
      </trkpt>
      <trkpt lat="44.49536" lon="0.96807">
        <ele>77</ele>
        <time>2014-01-18T15:27:53Z</time>
      </trkpt>
      <trkpt lat="44.49534" lon="0.968">
        <ele>77</ele>
        <time>2014-01-18T15:27:54Z</time>
      </trkpt>
      <trkpt lat="44.49532" lon="0.96793">
        <ele>77</ele>
        <time>2014-01-18T15:27:55Z</time>
      </trkpt>
      <trkpt lat="44.4953" lon="0.96786">
        <ele>77</ele>
        <time>2014-01-18T15:27:56Z</time>
      </trkpt>
      <trkpt lat="44.49484" lon="0.96671">
        <ele>73</ele>
        <time>2014-01-18T15:28:13Z</time>
      </trkpt>
      <trkpt lat="44.49436" lon="0.96557">
        <ele>72</ele>
        <time>2014-01-18T15:28:30Z</time>
      </trkpt>
      <trkpt lat="44.4939" lon="0.96456">
        <ele>73</ele>
        <time>2014-01-18T15:28:46Z</time>
      </trkpt>
      <trkpt lat="44.49364" lon="0.96394">
        <ele>72</ele>
        <time>2014-01-18T15:28:56Z</time>
      </trkpt>
      <trkpt lat="44.49355" lon="0.96369">
        <ele>72</ele>
        <time>2014-01-18T15:29:00Z</time>
      </trkpt>
      <trkpt lat="44.49351" lon="0.96363">
        <ele>72</ele>
        <time>2014-01-18T15:29:01Z</time>
      </trkpt>
      <trkpt lat="44.49337" lon="0.96334">
        <ele>72</ele>
        <time>2014-01-18T15:29:06Z</time>
      </trkpt>
      <trkpt lat="44.49333" lon="0.96329">
        <ele>72</ele>
        <time>2014-01-18T15:29:07Z</time>
      </trkpt>
      <trkpt lat="44.49329" lon="0.96323">
        <ele>72</ele>
        <time>2014-01-18T15:29:08Z</time>
      </trkpt>
      <trkpt lat="44.49297" lon="0.96231">
        <ele>75</ele>
        <time>2014-01-18T15:29:21Z</time>
      </trkpt>
      <trkpt lat="44.49263" lon="0.96148">
        <ele>75</ele>
        <time>2014-01-18T15:29:35Z</time>
      </trkpt>
      <trkpt lat="44.49221" lon="0.96051">
        <ele>74</ele>
        <time>2014-01-18T15:29:50Z</time>
      </trkpt>
      <trkpt lat="44.49176" lon="0.95949">
        <ele>71</ele>
        <time>2014-01-18T15:30:06Z</time>
      </trkpt>
      <trkpt lat="44.49134" lon="0.9585">
        <ele>70</ele>
        <time>2014-01-18T15:30:22Z</time>
      </trkpt>
      <trkpt lat="44.49094" lon="0.95756">
        <ele>70</ele>
        <time>2014-01-18T15:30:37Z</time>
      </trkpt>
      <trkpt lat="44.49069" lon="0.95699">
        <ele>70</ele>
        <time>2014-01-18T15:30:47Z</time>
      </trkpt>
      <trkpt lat="44.49065" lon="0.95685">
        <ele>70</ele>
        <time>2014-01-18T15:30:49Z</time>
      </trkpt>
      <trkpt lat="44.49013" lon="0.95562">
        <ele>70</ele>
        <time>2014-01-18T15:31:08Z</time>
      </trkpt>
      <trkpt lat="44.49013" lon="0.95559">
        <ele>70</ele>
        <time>2014-01-18T15:31:16Z</time>
      </trkpt>
      <trkpt lat="44.49013" lon="0.95559">
        <ele>70</ele>
        <time>2014-01-18T15:31:27Z</time>
      </trkpt>
      <trkpt lat="44.49014" lon="0.95558">
        <ele>69</ele>
        <time>2014-01-18T15:31:39Z</time>
      </trkpt>
      <trkpt lat="44.49015" lon="0.95558">
        <ele>68</ele>
        <time>2014-01-18T15:32:00Z</time>
      </trkpt>
      <trkpt lat="44.49013" lon="0.9556">
        <ele>67</ele>
        <time>2014-01-18T15:32:32Z</time>
      </trkpt>
      <trkpt lat="44.49013" lon="0.9556">
        <ele>67</ele>
        <time>2014-01-18T15:32:54Z</time>
      </trkpt>
      <trkpt lat="44.49013" lon="0.95559">
        <ele>68</ele>
        <time>2014-01-18T15:33:02Z</time>
      </trkpt>
      <trkpt lat="44.49006" lon="0.95537">
        <ele>67</ele>
        <time>2014-01-18T15:33:09Z</time>
      </trkpt>
      <trkpt lat="44.48986" lon="0.9545">
        <ele>68</ele>
        <time>2014-01-18T15:33:21Z</time>
      </trkpt>
      <trkpt lat="44.48983" lon="0.95427">
        <ele>68</ele>
        <time>2014-01-18T15:33:24Z</time>
      </trkpt>
      <trkpt lat="44.4897" lon="0.953">
        <ele>69</ele>
        <time>2014-01-18T15:33:41Z</time>
      </trkpt>
      <trkpt lat="44.4896" lon="0.95195">
        <ele>69</ele>
        <time>2014-01-18T15:33:55Z</time>
      </trkpt>
      <trkpt lat="44.48951" lon="0.95088">
        <ele>70</ele>
        <time>2014-01-18T15:34:09Z</time>
      </trkpt>
      <trkpt lat="44.48937" lon="0.94954">
        <ele>70</ele>
        <time>2014-01-18T15:34:27Z</time>
      </trkpt>
      <trkpt lat="44.48936" lon="0.94939">
        <ele>70</ele>
        <time>2014-01-18T15:34:29Z</time>
      </trkpt>
      <trkpt lat="44.48931" lon="0.94894">
        <ele>70</ele>
        <time>2014-01-18T15:34:35Z</time>
      </trkpt>
      <trkpt lat="44.48919" lon="0.94768">
        <ele>72</ele>
        <time>2014-01-18T15:34:53Z</time>
      </trkpt>
      <trkpt lat="44.48917" lon="0.94748">
        <ele>72</ele>
        <time>2014-01-18T15:34:56Z</time>
      </trkpt>
      <trkpt lat="44.48916" lon="0.94718">
        <ele>73</ele>
        <time>2014-01-18T15:35:01Z</time>
      </trkpt>
      <trkpt lat="44.48914" lon="0.94706">
        <ele>74</ele>
        <time>2014-01-18T15:35:03Z</time>
      </trkpt>
      <trkpt lat="44.48908" lon="0.94626">
        <ele>74</ele>
        <time>2014-01-18T15:35:18Z</time>
      </trkpt>
      <trkpt lat="44.48901" lon="0.9457">
        <ele>74</ele>
        <time>2014-01-18T15:35:31Z</time>
      </trkpt>
      <trkpt lat="44.48899" lon="0.94563">
        <ele>75</ele>
        <time>2014-01-18T15:35:41Z</time>
      </trkpt>
      <trkpt lat="44.48901" lon="0.94565">
        <ele>76</ele>
        <time>2014-01-18T15:35:44Z</time>
      </trkpt>
      <trkpt lat="44.489" lon="0.94568">
        <ele>76</ele>
        <time>2014-01-18T15:35:47Z</time>
      </trkpt>
      <trkpt lat="44.48899" lon="0.94565">
        <ele>75</ele>
        <time>2014-01-18T15:35:59Z</time>
      </trkpt>
      <trkpt lat="44.48898" lon="0.94565">
        <ele>75</ele>
        <time>2014-01-18T15:36:21Z</time>
      </trkpt>
      <trkpt lat="44.48894" lon="0.94562">
        <ele>74</ele>
        <time>2014-01-18T15:36:36Z</time>
      </trkpt>
      <trkpt lat="44.4889" lon="0.94556">
        <ele>72</ele>
        <time>2014-01-18T15:36:44Z</time>
      </trkpt>
      <trkpt lat="44.48884" lon="0.94555">
        <ele>73</ele>
        <time>2014-01-18T15:36:56Z</time>
      </trkpt>
      <trkpt lat="44.48884" lon="0.94556">
        <ele>73</ele>
        <time>2014-01-18T15:37:09Z</time>
      </trkpt>
      <trkpt lat="44.48888" lon="0.94555">
        <ele>72</ele>
        <time>2014-01-18T15:37:20Z</time>
      </trkpt>
      <trkpt lat="44.48883" lon="0.94552">
        <ele>73</ele>
        <time>2014-01-18T15:37:32Z</time>
      </trkpt>
      <trkpt lat="44.48883" lon="0.94554">
        <ele>73</ele>
        <time>2014-01-18T15:37:48Z</time>
      </trkpt>
      <trkpt lat="44.48883" lon="0.94554">
        <ele>73</ele>
        <time>2014-01-18T15:37:59Z</time>
      </trkpt>
      <trkpt lat="44.48883" lon="0.94555">
        <ele>75</ele>
        <time>2014-01-18T15:38:19Z</time>
      </trkpt>
      <trkpt lat="44.48882" lon="0.94555">
        <ele>75</ele>
        <time>2014-01-18T15:38:37Z</time>
      </trkpt>
      <trkpt lat="44.48881" lon="0.94554">
        <ele>75</ele>
        <time>2014-01-18T15:38:56Z</time>
      </trkpt>
      <trkpt lat="44.48882" lon="0.94555">
        <ele>75</ele>
        <time>2014-01-18T15:39:17Z</time>
      </trkpt>
      <trkpt lat="44.48882" lon="0.94555">
        <ele>75</ele>
        <time>2014-01-18T15:39:35Z</time>
      </trkpt>
      <trkpt lat="44.48882" lon="0.94554">
        <ele>74</ele>
        <time>2014-01-18T15:39:51Z</time>
      </trkpt>
      <trkpt lat="44.48884" lon="0.94554">
        <ele>74</ele>
        <time>2014-01-18T15:40:10Z</time>
      </trkpt>
      <trkpt lat="44.48883" lon="0.94553">
        <ele>75</ele>
        <time>2014-01-18T15:40:33Z</time>
      </trkpt>
      <trkpt lat="44.48883" lon="0.94554">
        <ele>74</ele>
        <time>2014-01-18T15:40:45Z</time>
      </trkpt>
      <trkpt lat="44.4888" lon="0.94556">
        <ele>74</ele>
        <time>2014-01-18T15:40:47Z</time>
      </trkpt>
      <trkpt lat="44.48878" lon="0.94558">
        <ele>74</ele>
        <time>2014-01-18T15:40:48Z</time>
      </trkpt>
      <trkpt lat="44.48855" lon="0.94573">
        <ele>72</ele>
        <time>2014-01-18T15:40:55Z</time>
      </trkpt>
      <trkpt lat="44.48828" lon="0.94581">
        <ele>71</ele>
        <time>2014-01-18T15:41:01Z</time>
      </trkpt>
      <trkpt lat="44.48814" lon="0.9458">
        <ele>70</ele>
        <time>2014-01-18T15:41:04Z</time>
      </trkpt>
      <trkpt lat="44.48805" lon="0.9458">
        <ele>69</ele>
        <time>2014-01-18T15:41:06Z</time>
      </trkpt>
      <trkpt lat="44.48761" lon="0.94553">
        <ele>68</ele>
        <time>2014-01-18T15:41:18Z</time>
      </trkpt>
      <trkpt lat="44.48745" lon="0.94508">
        <ele>68</ele>
        <time>2014-01-18T15:41:28Z</time>
      </trkpt>
      <trkpt lat="44.48736" lon="0.94492">
        <ele>68</ele>
        <time>2014-01-18T15:41:32Z</time>
      </trkpt>
      <trkpt lat="44.48733" lon="0.94488">
        <ele>68</ele>
        <time>2014-01-18T15:41:33Z</time>
      </trkpt>
      <trkpt lat="44.48716" lon="0.9447">
        <ele>68</ele>
        <time>2014-01-18T15:41:38Z</time>
      </trkpt>
      <trkpt lat="44.48713" lon="0.94465">
        <ele>68</ele>
        <time>2014-01-18T15:41:39Z</time>
      </trkpt>
      <trkpt lat="44.4871" lon="0.9446">
        <ele>67</ele>
        <time>2014-01-18T15:41:40Z</time>
      </trkpt>
      <trkpt lat="44.48707" lon="0.94455">
        <ele>67</ele>
        <time>2014-01-18T15:41:41Z</time>
      </trkpt>
      <trkpt lat="44.48704" lon="0.94451">
        <ele>67</ele>
        <time>2014-01-18T15:41:42Z</time>
      </trkpt>
      <trkpt lat="44.48699" lon="0.94441">
        <ele>67</ele>
        <time>2014-01-18T15:41:44Z</time>
      </trkpt>
      <trkpt lat="44.48696" lon="0.94437">
        <ele>67</ele>
        <time>2014-01-18T15:41:45Z</time>
      </trkpt>
      <trkpt lat="44.48668" lon="0.94382">
        <ele>67</ele>
        <time>2014-01-18T15:41:57Z</time>
      </trkpt>
      <trkpt lat="44.48667" lon="0.94381">
        <ele>67</ele>
        <time>2014-01-18T15:41:58Z</time>
      </trkpt>
      <trkpt lat="44.48664" lon="0.94379">
        <ele>66</ele>
        <time>2014-01-18T15:42:09Z</time>
      </trkpt>
      <trkpt lat="44.48663" lon="0.94379">
        <ele>66</ele>
        <time>2014-01-18T15:42:13Z</time>
      </trkpt>
      <trkpt lat="44.48662" lon="0.9438">
        <ele>66</ele>
        <time>2014-01-18T15:42:14Z</time>
      </trkpt>
      <trkpt lat="44.4866" lon="0.94382">
        <ele>66</ele>
        <time>2014-01-18T15:42:15Z</time>
      </trkpt>
      <trkpt lat="44.48659" lon="0.94384">
        <ele>66</ele>
        <time>2014-01-18T15:42:16Z</time>
      </trkpt>
      <trkpt lat="44.48657" lon="0.94387">
        <ele>66</ele>
        <time>2014-01-18T15:42:17Z</time>
      </trkpt>
      <trkpt lat="44.48635" lon="0.94406">
        <ele>65</ele>
        <time>2014-01-18T15:42:23Z</time>
      </trkpt>
      <trkpt lat="44.48631" lon="0.9441">
        <ele>65</ele>
        <time>2014-01-18T15:42:24Z</time>
      </trkpt>
      <trkpt lat="44.48618" lon="0.94419">
        <ele>65</ele>
        <time>2014-01-18T15:42:27Z</time>
      </trkpt>
      <trkpt lat="44.48614" lon="0.94422">
        <ele>65</ele>
        <time>2014-01-18T15:42:28Z</time>
      </trkpt>
      <trkpt lat="44.48593" lon="0.94431">
        <ele>64</ele>
        <time>2014-01-18T15:42:32Z</time>
      </trkpt>
      <trkpt lat="44.4859" lon="0.94432">
        <ele>65</ele>
        <time>2014-01-18T15:42:33Z</time>
      </trkpt>
      <trkpt lat="44.48576" lon="0.94437">
        <ele>65</ele>
        <time>2014-01-18T15:42:36Z</time>
      </trkpt>
      <trkpt lat="44.48573" lon="0.94439">
        <ele>65</ele>
        <time>2014-01-18T15:42:37Z</time>
      </trkpt>
      <trkpt lat="44.48569" lon="0.94442">
        <ele>65</ele>
        <time>2014-01-18T15:42:38Z</time>
      </trkpt>
      <trkpt lat="44.48564" lon="0.94445">
        <ele>65</ele>
        <time>2014-01-18T15:42:39Z</time>
      </trkpt>
      <trkpt lat="44.4856" lon="0.94447">
        <ele>65</ele>
        <time>2014-01-18T15:42:40Z</time>
      </trkpt>
      <trkpt lat="44.4855" lon="0.94449">
        <ele>65</ele>
        <time>2014-01-18T15:42:43Z</time>
      </trkpt>
      <trkpt lat="44.48549" lon="0.94448">
        <ele>64</ele>
        <time>2014-01-18T15:42:44Z</time>
      </trkpt>
      <trkpt lat="44.48537" lon="0.94419">
        <ele>64</ele>
        <time>2014-01-18T15:42:51Z</time>
      </trkpt>
      <trkpt lat="44.48524" lon="0.94418">
        <ele>64</ele>
        <time>2014-01-18T15:42:56Z</time>
      </trkpt>
      <trkpt lat="44.48465" lon="0.94439">
        <ele>63</ele>
        <time>2014-01-18T15:43:11Z</time>
      </trkpt>
      <trkpt lat="44.48444" lon="0.94442">
        <ele>64</ele>
        <time>2014-01-18T15:43:20Z</time>
      </trkpt>
      <trkpt lat="44.48438" lon="0.94468">
        <ele>65</ele>
        <time>2014-01-18T15:43:30Z</time>
      </trkpt>
      <trkpt lat="44.48434" lon="0.94476">
        <ele>65</ele>
        <time>2014-01-18T15:43:32Z</time>
      </trkpt>
      <trkpt lat="44.4843" lon="0.94478">
        <ele>65</ele>
        <time>2014-01-18T15:43:33Z</time>
      </trkpt>
      <trkpt lat="44.48408" lon="0.94481">
        <ele>65</ele>
        <time>2014-01-18T15:43:39Z</time>
      </trkpt>
      <trkpt lat="44.48406" lon="0.94478">
        <ele>65</ele>
        <time>2014-01-18T15:43:40Z</time>
      </trkpt>
      <trkpt lat="44.48403" lon="0.94475">
        <ele>65</ele>
        <time>2014-01-18T15:43:41Z</time>
      </trkpt>
      <trkpt lat="44.48402" lon="0.94471">
        <ele>65</ele>
        <time>2014-01-18T15:43:42Z</time>
      </trkpt>
      <trkpt lat="44.48401" lon="0.94467">
        <ele>65</ele>
        <time>2014-01-18T15:43:43Z</time>
      </trkpt>
      <trkpt lat="44.484" lon="0.94462">
        <ele>65</ele>
        <time>2014-01-18T15:43:44Z</time>
      </trkpt>
      <trkpt lat="44.484" lon="0.94458">
        <ele>64</ele>
        <time>2014-01-18T15:43:45Z</time>
      </trkpt>
      <trkpt lat="44.484" lon="0.94453">
        <ele>63</ele>
        <time>2014-01-18T15:43:46Z</time>
      </trkpt>
      <trkpt lat="44.48399" lon="0.94449">
        <ele>62</ele>
        <time>2014-01-18T15:43:47Z</time>
      </trkpt>
      <trkpt lat="44.48399" lon="0.94444">
        <ele>62</ele>
        <time>2014-01-18T15:43:48Z</time>
      </trkpt>
      <trkpt lat="44.48388" lon="0.94399">
        <ele>62</ele>
        <time>2014-01-18T15:43:58Z</time>
      </trkpt>
      <trkpt lat="44.48388" lon="0.94397">
        <ele>62</ele>
        <time>2014-01-18T15:43:59Z</time>
      </trkpt>
      <trkpt lat="44.48387" lon="0.94394">
        <ele>62</ele>
        <time>2014-01-18T15:44:05Z</time>
      </trkpt>
      <trkpt lat="44.48384" lon="0.9439">
        <ele>63</ele>
        <time>2014-01-18T15:44:07Z</time>
      </trkpt>
      <trkpt lat="44.48382" lon="0.9439">
        <ele>63</ele>
        <time>2014-01-18T15:44:08Z</time>
      </trkpt>
      <trkpt lat="44.4838" lon="0.9439">
        <ele>63</ele>
        <time>2014-01-18T15:44:09Z</time>
      </trkpt>
      <trkpt lat="44.48378" lon="0.94391">
        <ele>64</ele>
        <time>2014-01-18T15:44:10Z</time>
      </trkpt>
      <trkpt lat="44.48375" lon="0.94391">
        <ele>64</ele>
        <time>2014-01-18T15:44:11Z</time>
      </trkpt>
      <trkpt lat="44.4833" lon="0.94403">
        <ele>64</ele>
        <time>2014-01-18T15:44:22Z</time>
      </trkpt>
      <trkpt lat="44.48261" lon="0.94422">
        <ele>65</ele>
        <time>2014-01-18T15:44:37Z</time>
      </trkpt>
      <trkpt lat="44.48243" lon="0.94426">
        <ele>66</ele>
        <time>2014-01-18T15:44:42Z</time>
      </trkpt>
      <trkpt lat="44.48241" lon="0.9443">
        <ele>66</ele>
        <time>2014-01-18T15:44:43Z</time>
      </trkpt>
      <trkpt lat="44.48241" lon="0.94434">
        <ele>66</ele>
        <time>2014-01-18T15:44:44Z</time>
      </trkpt>
      <trkpt lat="44.48241" lon="0.94439">
        <ele>66</ele>
        <time>2014-01-18T15:44:45Z</time>
      </trkpt>
      <trkpt lat="44.48242" lon="0.94443">
        <ele>66</ele>
        <time>2014-01-18T15:44:46Z</time>
      </trkpt>
      <trkpt lat="44.48245" lon="0.94465">
        <ele>65</ele>
        <time>2014-01-18T15:44:50Z</time>
      </trkpt>
      <trkpt lat="44.48244" lon="0.94471">
        <ele>65</ele>
        <time>2014-01-18T15:44:51Z</time>
      </trkpt>
      <trkpt lat="44.48242" lon="0.94476">
        <ele>65</ele>
        <time>2014-01-18T15:44:52Z</time>
      </trkpt>
      <trkpt lat="44.48239" lon="0.94479">
        <ele>65</ele>
        <time>2014-01-18T15:44:53Z</time>
      </trkpt>
      <trkpt lat="44.48235" lon="0.94482">
        <ele>65</ele>
        <time>2014-01-18T15:44:54Z</time>
      </trkpt>
      <trkpt lat="44.48231" lon="0.94484">
        <ele>66</ele>
        <time>2014-01-18T15:44:55Z</time>
      </trkpt>
      <trkpt lat="44.48227" lon="0.94486">
        <ele>66</ele>
        <time>2014-01-18T15:44:56Z</time>
      </trkpt>
      <trkpt lat="44.48162" lon="0.94513">
        <ele>65</ele>
        <time>2014-01-18T15:45:09Z</time>
      </trkpt>
      <trkpt lat="44.48146" lon="0.94524">
        <ele>65</ele>
        <time>2014-01-18T15:45:17Z</time>
      </trkpt>
      <trkpt lat="44.48121" lon="0.94539">
        <ele>64</ele>
        <time>2014-01-18T15:45:25Z</time>
      </trkpt>
      <trkpt lat="44.48096" lon="0.94557">
        <ele>64</ele>
        <time>2014-01-18T15:45:35Z</time>
      </trkpt>
      <trkpt lat="44.48096" lon="0.9456">
        <ele>64</ele>
        <time>2014-01-18T15:45:36Z</time>
      </trkpt>
      <trkpt lat="44.48096" lon="0.94564">
        <ele>64</ele>
        <time>2014-01-18T15:45:37Z</time>
      </trkpt>
      <trkpt lat="44.48097" lon="0.94568">
        <ele>64</ele>
        <time>2014-01-18T15:45:38Z</time>
      </trkpt>
      <trkpt lat="44.48098" lon="0.94573">
        <ele>64</ele>
        <time>2014-01-18T15:45:39Z</time>
      </trkpt>
      <trkpt lat="44.481" lon="0.94577">
        <ele>64</ele>
        <time>2014-01-18T15:45:40Z</time>
      </trkpt>
      <trkpt lat="44.48102" lon="0.94582">
        <ele>64</ele>
        <time>2014-01-18T15:45:41Z</time>
      </trkpt>
      <trkpt lat="44.48119" lon="0.9462">
        <ele>63</ele>
        <time>2014-01-18T15:45:49Z</time>
      </trkpt>
      <trkpt lat="44.4812" lon="0.94626">
        <ele>63</ele>
        <time>2014-01-18T15:45:50Z</time>
      </trkpt>
      <trkpt lat="44.48122" lon="0.94631">
        <ele>63</ele>
        <time>2014-01-18T15:45:51Z</time>
      </trkpt>
      <trkpt lat="44.48124" lon="0.94636">
        <ele>63</ele>
        <time>2014-01-18T15:45:52Z</time>
      </trkpt>
      <trkpt lat="44.48126" lon="0.94641">
        <ele>63</ele>
        <time>2014-01-18T15:45:53Z</time>
      </trkpt>
      <trkpt lat="44.48128" lon="0.94647">
        <ele>63</ele>
        <time>2014-01-18T15:45:54Z</time>
      </trkpt>
      <trkpt lat="44.4813" lon="0.94652">
        <ele>62</ele>
        <time>2014-01-18T15:45:55Z</time>
      </trkpt>
      <trkpt lat="44.48132" lon="0.94657">
        <ele>62</ele>
        <time>2014-01-18T15:45:56Z</time>
      </trkpt>
      <trkpt lat="44.48134" lon="0.94662">
        <ele>62</ele>
        <time>2014-01-18T15:45:57Z</time>
      </trkpt>
      <trkpt lat="44.48135" lon="0.94668">
        <ele>63</ele>
        <time>2014-01-18T15:45:58Z</time>
      </trkpt>
      <trkpt lat="44.48134" lon="0.94674">
        <ele>63</ele>
        <time>2014-01-18T15:45:59Z</time>
      </trkpt>
      <trkpt lat="44.48131" lon="0.94678">
        <ele>63</ele>
        <time>2014-01-18T15:46:00Z</time>
      </trkpt>
      <trkpt lat="44.48127" lon="0.94681">
        <ele>63</ele>
        <time>2014-01-18T15:46:01Z</time>
      </trkpt>
      <trkpt lat="44.48123" lon="0.94684">
        <ele>64</ele>
        <time>2014-01-18T15:46:02Z</time>
      </trkpt>
      <trkpt lat="44.48119" lon="0.94687">
        <ele>64</ele>
        <time>2014-01-18T15:46:03Z</time>
      </trkpt>
      <trkpt lat="44.48069" lon="0.94727">
        <ele>66</ele>
        <time>2014-01-18T15:46:16Z</time>
      </trkpt>
      <trkpt lat="44.48018" lon="0.94771">
        <ele>63</ele>
        <time>2014-01-18T15:46:29Z</time>
      </trkpt>
      <trkpt lat="44.48014" lon="0.94772">
        <ele>63</ele>
        <time>2014-01-18T15:46:30Z</time>
      </trkpt>
      <trkpt lat="44.48012" lon="0.94771">
        <ele>63</ele>
        <time>2014-01-18T15:46:31Z</time>
      </trkpt>
      <trkpt lat="44.4801" lon="0.94767">
        <ele>63</ele>
        <time>2014-01-18T15:46:32Z</time>
      </trkpt>
      <trkpt lat="44.48008" lon="0.94763">
        <ele>63</ele>
        <time>2014-01-18T15:46:33Z</time>
      </trkpt>
      <trkpt lat="44.47996" lon="0.94736">
        <ele>63</ele>
        <time>2014-01-18T15:46:42Z</time>
      </trkpt>
      <trkpt lat="44.47982" lon="0.94701">
        <ele>67</ele>
        <time>2014-01-18T15:46:58Z</time>
      </trkpt>
      <trkpt lat="44.47973" lon="0.94672">
        <ele>67</ele>
        <time>2014-01-18T15:47:11Z</time>
      </trkpt>
      <trkpt lat="44.47964" lon="0.94649">
        <ele>66</ele>
        <time>2014-01-18T15:47:24Z</time>
      </trkpt>
      <trkpt lat="44.47964" lon="0.94648">
        <ele>65</ele>
        <time>2014-01-18T15:47:46Z</time>
      </trkpt>
      <trkpt lat="44.47964" lon="0.94647">
        <ele>64</ele>
        <time>2014-01-18T15:47:47Z</time>
      </trkpt>
      <trkpt lat="44.47963" lon="0.94645">
        <ele>64</ele>
        <time>2014-01-18T15:47:48Z</time>
      </trkpt>
      <trkpt lat="44.4796" lon="0.94634">
        <ele>65</ele>
        <time>2014-01-18T15:47:53Z</time>
      </trkpt>
      <trkpt lat="44.47959" lon="0.94633">
        <ele>65</ele>
        <time>2014-01-18T15:47:54Z</time>
      </trkpt>
      <trkpt lat="44.47958" lon="0.9463">
        <ele>65</ele>
        <time>2014-01-18T15:47:55Z</time>
      </trkpt>
      <trkpt lat="44.47953" lon="0.94616">
        <ele>65</ele>
        <time>2014-01-18T15:48:01Z</time>
      </trkpt>
      <trkpt lat="44.47952" lon="0.94612">
        <ele>65</ele>
        <time>2014-01-18T15:48:02Z</time>
      </trkpt>
      <trkpt lat="44.47936" lon="0.94552">
        <ele>66</ele>
        <time>2014-01-18T15:48:17Z</time>
      </trkpt>
      <trkpt lat="44.47923" lon="0.94509">
        <ele>65</ele>
        <time>2014-01-18T15:48:27Z</time>
      </trkpt>
      <trkpt lat="44.47911" lon="0.94475">
        <ele>65</ele>
        <time>2014-01-18T15:48:39Z</time>
      </trkpt>
      <trkpt lat="44.47906" lon="0.94457">
        <ele>65</ele>
        <time>2014-01-18T15:48:49Z</time>
      </trkpt>
      <trkpt lat="44.47892" lon="0.94408">
        <ele>64</ele>
        <time>2014-01-18T15:49:00Z</time>
      </trkpt>
      <trkpt lat="44.47891" lon="0.94402">
        <ele>64</ele>
        <time>2014-01-18T15:49:01Z</time>
      </trkpt>
      <trkpt lat="44.47862" lon="0.94325">
        <ele>63</ele>
        <time>2014-01-18T15:49:15Z</time>
      </trkpt>
      <trkpt lat="44.47854" lon="0.94305">
        <ele>63</ele>
        <time>2014-01-18T15:49:19Z</time>
      </trkpt>
      <trkpt lat="44.47844" lon="0.94287">
        <ele>62</ele>
        <time>2014-01-18T15:49:23Z</time>
      </trkpt>
      <trkpt lat="44.47817" lon="0.94225">
        <ele>62</ele>
        <time>2014-01-18T15:49:37Z</time>
      </trkpt>
      <trkpt lat="44.47796" lon="0.94184">
        <ele>64</ele>
        <time>2014-01-18T15:49:47Z</time>
      </trkpt>
      <trkpt lat="44.47755" lon="0.9413">
        <ele>63</ele>
        <time>2014-01-18T15:50:01Z</time>
      </trkpt>
      <trkpt lat="44.47717" lon="0.94097">
        <ele>62</ele>
        <time>2014-01-18T15:50:13Z</time>
      </trkpt>
      <trkpt lat="44.47687" lon="0.94069">
        <ele>61</ele>
        <time>2014-01-18T15:50:24Z</time>
      </trkpt>
      <trkpt lat="44.4765" lon="0.94044">
        <ele>62</ele>
        <time>2014-01-18T15:50:37Z</time>
      </trkpt>
      <trkpt lat="44.47612" lon="0.94019">
        <ele>62</ele>
        <time>2014-01-18T15:50:52Z</time>
      </trkpt>
      <trkpt lat="44.47592" lon="0.94002">
        <ele>61</ele>
        <time>2014-01-18T15:51:00Z</time>
      </trkpt>
      <trkpt lat="44.47583" lon="0.93996">
        <ele>61</ele>
        <time>2014-01-18T15:51:03Z</time>
      </trkpt>
      <trkpt lat="44.4758" lon="0.93993">
        <ele>61</ele>
        <time>2014-01-18T15:51:04Z</time>
      </trkpt>
      <trkpt lat="44.47577" lon="0.9399">
        <ele>62</ele>
        <time>2014-01-18T15:51:05Z</time>
      </trkpt>
      <trkpt lat="44.47574" lon="0.93986">
        <ele>62</ele>
        <time>2014-01-18T15:51:06Z</time>
      </trkpt>
      <trkpt lat="44.47571" lon="0.93983">
        <ele>62</ele>
        <time>2014-01-18T15:51:07Z</time>
      </trkpt>
      <trkpt lat="44.47564" lon="0.93976">
        <ele>62</ele>
        <time>2014-01-18T15:51:09Z</time>
      </trkpt>
      <trkpt lat="44.47546" lon="0.93963">
        <ele>62</ele>
        <time>2014-01-18T15:51:14Z</time>
      </trkpt>
      <trkpt lat="44.47542" lon="0.93961">
        <ele>62</ele>
        <time>2014-01-18T15:51:15Z</time>
      </trkpt>
      <trkpt lat="44.47538" lon="0.93961">
        <ele>62</ele>
        <time>2014-01-18T15:51:16Z</time>
      </trkpt>
      <trkpt lat="44.47534" lon="0.9396">
        <ele>62</ele>
        <time>2014-01-18T15:51:17Z</time>
      </trkpt>
      <trkpt lat="44.4753" lon="0.93959">
        <ele>62</ele>
        <time>2014-01-18T15:51:18Z</time>
      </trkpt>
      <trkpt lat="44.47527" lon="0.93957">
        <ele>62</ele>
        <time>2014-01-18T15:51:19Z</time>
      </trkpt>
      <trkpt lat="44.47525" lon="0.93955">
        <ele>62</ele>
        <time>2014-01-18T15:51:20Z</time>
      </trkpt>
      <trkpt lat="44.47523" lon="0.93952">
        <ele>61</ele>
        <time>2014-01-18T15:51:21Z</time>
      </trkpt>
      <trkpt lat="44.47521" lon="0.93951">
        <ele>61</ele>
        <time>2014-01-18T15:51:22Z</time>
      </trkpt>
      <trkpt lat="44.47521" lon="0.93949">
        <ele>60</ele>
        <time>2014-01-18T15:51:23Z</time>
      </trkpt>
      <trkpt lat="44.47519" lon="0.93946">
        <ele>60</ele>
        <time>2014-01-18T15:51:24Z</time>
      </trkpt>
      <trkpt lat="44.47518" lon="0.93943">
        <ele>59</ele>
        <time>2014-01-18T15:51:25Z</time>
      </trkpt>
      <trkpt lat="44.47516" lon="0.9394">
        <ele>59</ele>
        <time>2014-01-18T15:51:26Z</time>
      </trkpt>
      <trkpt lat="44.47514" lon="0.93936">
        <ele>58</ele>
        <time>2014-01-18T15:51:27Z</time>
      </trkpt>
      <trkpt lat="44.47487" lon="0.93898">
        <ele>58</ele>
        <time>2014-01-18T15:51:37Z</time>
      </trkpt>
      <trkpt lat="44.47483" lon="0.93899">
        <ele>58</ele>
        <time>2014-01-18T15:51:38Z</time>
      </trkpt>
      <trkpt lat="44.47479" lon="0.93901">
        <ele>58</ele>
        <time>2014-01-18T15:51:39Z</time>
      </trkpt>
      <trkpt lat="44.47433" lon="0.93931">
        <ele>64</ele>
        <time>2014-01-18T15:51:52Z</time>
      </trkpt>
      <trkpt lat="44.47421" lon="0.93937">
        <ele>65</ele>
        <time>2014-01-18T15:51:55Z</time>
      </trkpt>
      <trkpt lat="44.47418" lon="0.93941">
        <ele>65</ele>
        <time>2014-01-18T15:51:56Z</time>
      </trkpt>
      <trkpt lat="44.47406" lon="0.9395">
        <ele>67</ele>
        <time>2014-01-18T15:52:00Z</time>
      </trkpt>
      <trkpt lat="44.47401" lon="0.93952">
        <ele>68</ele>
        <time>2014-01-18T15:52:02Z</time>
      </trkpt>
      <trkpt lat="44.47393" lon="0.93958">
        <ele>69</ele>
        <time>2014-01-18T15:52:07Z</time>
      </trkpt>
      <trkpt lat="44.47392" lon="0.93956">
        <ele>70</ele>
        <time>2014-01-18T15:52:08Z</time>
      </trkpt>
      <trkpt lat="44.47384" lon="0.93915">
        <ele>72</ele>
        <time>2014-01-18T15:52:20Z</time>
      </trkpt>
      <trkpt lat="44.47383" lon="0.93911">
        <ele>72</ele>
        <time>2014-01-18T15:52:21Z</time>
      </trkpt>
      <trkpt lat="44.47382" lon="0.93907">
        <ele>72</ele>
        <time>2014-01-18T15:52:22Z</time>
      </trkpt>
      <trkpt lat="44.47371" lon="0.93845">
        <ele>69</ele>
        <time>2014-01-18T15:52:34Z</time>
      </trkpt>
      <trkpt lat="44.47369" lon="0.9384">
        <ele>69</ele>
        <time>2014-01-18T15:52:35Z</time>
      </trkpt>
      <trkpt lat="44.47367" lon="0.93836">
        <ele>69</ele>
        <time>2014-01-18T15:52:36Z</time>
      </trkpt>
      <trkpt lat="44.47364" lon="0.93831">
        <ele>69</ele>
        <time>2014-01-18T15:52:37Z</time>
      </trkpt>
      <trkpt lat="44.47362" lon="0.93828">
        <ele>69</ele>
        <time>2014-01-18T15:52:38Z</time>
      </trkpt>
      <trkpt lat="44.47349" lon="0.93814">
        <ele>70</ele>
        <time>2014-01-18T15:52:43Z</time>
      </trkpt>
      <trkpt lat="44.47347" lon="0.93809">
        <ele>70</ele>
        <time>2014-01-18T15:52:44Z</time>
      </trkpt>
      <trkpt lat="44.47347" lon="0.93804">
        <ele>70</ele>
        <time>2014-01-18T15:52:45Z</time>
      </trkpt>
      <trkpt lat="44.47346" lon="0.93798">
        <ele>70</ele>
        <time>2014-01-18T15:52:46Z</time>
      </trkpt>
      <trkpt lat="44.47344" lon="0.93793">
        <ele>70</ele>
        <time>2014-01-18T15:52:47Z</time>
      </trkpt>
      <trkpt lat="44.47342" lon="0.93781">
        <ele>69</ele>
        <time>2014-01-18T15:52:49Z</time>
      </trkpt>
      <trkpt lat="44.47335" lon="0.93759">
        <ele>69</ele>
        <time>2014-01-18T15:52:53Z</time>
      </trkpt>
      <trkpt lat="44.47306" lon="0.9371">
        <ele>69</ele>
        <time>2014-01-18T15:53:04Z</time>
      </trkpt>
      <trkpt lat="44.47294" lon="0.93679">
        <ele>69</ele>
        <time>2014-01-18T15:53:10Z</time>
      </trkpt>
      <trkpt lat="44.47291" lon="0.93674">
        <ele>69</ele>
        <time>2014-01-18T15:53:11Z</time>
      </trkpt>
      <trkpt lat="44.47288" lon="0.9367">
        <ele>70</ele>
        <time>2014-01-18T15:53:12Z</time>
      </trkpt>
      <trkpt lat="44.47285" lon="0.93665">
        <ele>70</ele>
        <time>2014-01-18T15:53:13Z</time>
      </trkpt>
      <trkpt lat="44.47283" lon="0.93658">
        <ele>70</ele>
        <time>2014-01-18T15:53:14Z</time>
      </trkpt>
      <trkpt lat="44.47282" lon="0.93652">
        <ele>69</ele>
        <time>2014-01-18T15:53:15Z</time>
      </trkpt>
      <trkpt lat="44.47278" lon="0.93647">
        <ele>69</ele>
        <time>2014-01-18T15:53:16Z</time>
      </trkpt>
      <trkpt lat="44.47274" lon="0.93642">
        <ele>69</ele>
        <time>2014-01-18T15:53:17Z</time>
      </trkpt>
      <trkpt lat="44.4727" lon="0.93638">
        <ele>69</ele>
        <time>2014-01-18T15:53:18Z</time>
      </trkpt>
      <trkpt lat="44.47266" lon="0.93634">
        <ele>69</ele>
        <time>2014-01-18T15:53:19Z</time>
      </trkpt>
      <trkpt lat="44.47251" lon="0.93618">
        <ele>69</ele>
        <time>2014-01-18T15:53:23Z</time>
      </trkpt>
      <trkpt lat="44.47248" lon="0.93613">
        <ele>69</ele>
        <time>2014-01-18T15:53:24Z</time>
      </trkpt>
      <trkpt lat="44.47244" lon="0.93601">
        <ele>69</ele>
        <time>2014-01-18T15:53:26Z</time>
      </trkpt>
      <trkpt lat="44.47242" lon="0.93596">
        <ele>69</ele>
        <time>2014-01-18T15:53:27Z</time>
      </trkpt>
      <trkpt lat="44.4724" lon="0.9359">
        <ele>69</ele>
        <time>2014-01-18T15:53:28Z</time>
      </trkpt>
      <trkpt lat="44.47229" lon="0.93557">
        <ele>68</ele>
        <time>2014-01-18T15:53:34Z</time>
      </trkpt>
      <trkpt lat="44.47229" lon="0.93551">
        <ele>68</ele>
        <time>2014-01-18T15:53:35Z</time>
      </trkpt>
      <trkpt lat="44.47229" lon="0.93538">
        <ele>68</ele>
        <time>2014-01-18T15:53:37Z</time>
      </trkpt>
      <trkpt lat="44.47227" lon="0.93505">
        <ele>67</ele>
        <time>2014-01-18T15:53:42Z</time>
      </trkpt>
      <trkpt lat="44.47225" lon="0.93486">
        <ele>67</ele>
        <time>2014-01-18T15:53:45Z</time>
      </trkpt>
      <trkpt lat="44.4722" lon="0.93462">
        <ele>67</ele>
        <time>2014-01-18T15:53:49Z</time>
      </trkpt>
      <trkpt lat="44.47219" lon="0.93457">
        <ele>68</ele>
        <time>2014-01-18T15:53:50Z</time>
      </trkpt>
      <trkpt lat="44.47217" lon="0.93453">
        <ele>68</ele>
        <time>2014-01-18T15:53:51Z</time>
      </trkpt>
      <trkpt lat="44.47214" lon="0.93449">
        <ele>68</ele>
        <time>2014-01-18T15:53:52Z</time>
      </trkpt>
      <trkpt lat="44.47212" lon="0.93446">
        <ele>68</ele>
        <time>2014-01-18T15:53:53Z</time>
      </trkpt>
      <trkpt lat="44.47211" lon="0.93442">
        <ele>68</ele>
        <time>2014-01-18T15:53:54Z</time>
      </trkpt>
      <trkpt lat="44.4721" lon="0.93437">
        <ele>68</ele>
        <time>2014-01-18T15:53:55Z</time>
      </trkpt>
      <trkpt lat="44.47209" lon="0.93433">
        <ele>68</ele>
        <time>2014-01-18T15:53:56Z</time>
      </trkpt>
      <trkpt lat="44.47209" lon="0.93429">
        <ele>68</ele>
        <time>2014-01-18T15:53:57Z</time>
      </trkpt>
      <trkpt lat="44.47208" lon="0.93426">
        <ele>68</ele>
        <time>2014-01-18T15:53:58Z</time>
      </trkpt>
      <trkpt lat="44.47207" lon="0.93416">
        <ele>67</ele>
        <time>2014-01-18T15:54:01Z</time>
      </trkpt>
      <trkpt lat="44.47209" lon="0.93413">
        <ele>66</ele>
        <time>2014-01-18T15:54:13Z</time>
      </trkpt>
      <trkpt lat="44.47209" lon="0.93413">
        <ele>66</ele>
        <time>2014-01-18T15:54:19Z</time>
      </trkpt>
    </trkseg>
  </trk>
</gpx>